Time,TemperatureF,DewpointF,PressureIn,WindDirection,WindDirectionDegrees,WindSpeedMPH,WindSpeedGustMPH,Humidity,HourlyPrecipIn,Conditions,Clouds,dailyrainin,SoftwareType,DateUTC
2014-12-17 00:00:00,58.1,57.3,30.11,West,267,0.0,0.0,97,0.00,,---,0.00,VWS V14.01,2014-12-17 05:00:00,
2014-12-17 00:01:00,58.4,57.8,30.12,West,267,0.0,0.0,98,0.00,,---,0.00,VWS V14.01,2014-12-17 05:01:00,
2014-12-17 00:02:00,58.1,57.3,30.11,West,267,0.0,0.0,97,0.00,,---,0.00,VWS V14.01,2014-12-17 05:02:00,
2014-12-17 00:03:00,58.0,57.2,30.11,West,267,0.0,0.0,97,0.00,,---,0.00,VWS V14.01,2014-12-17 05:03:00,
2014-12-17 00:04:00,58.0,57.2,30.11,West,267,0.0,0.0,97,0.00,,---,0.00,VWS V14.01,2014-12-17 05:04:00,
2014-12-17 00:05:00,58.0,57.2,30.11,West,267,0.0,0.0,97,0.00,,---,0.00,VWS V14.01,2014-12-17 05:05:00,
2014-12-17 00:06:00,58.3,57.5,30.12,West,267,0.0,0.0,97,0.00,,---,0.00,VWS V14.01,2014-12-17 05:06:00,
2014-12-17 00:07:00,58.0,57.2,30.11,West,267,0.0,0.0,97,0.00,,---,0.00,VWS V14.01,2014-12-17 05:07:00,
2014-12-17 00:08:00,57.8,57.0,30.11,West,267,0.0,0.0,97,0.00,,---,0.00,VWS V14.01,2014-12-17 05:08:00,
2014-12-17 00:09:00,57.8,57.0,30.11,West,267,0.0,0.0,97,0.00,,---,0.00,VWS V14.01,2014-12-17 05:09:00,
2014-12-17 00:10:00,57.8,57.0,30.11,West,267,0.0,0.0,97,0.00,,---,0.00,VWS V14.01,2014-12-17 05:10:00,
2014-12-17 00:11:00,57.8,57.0,30.11,West,267,0.0,0.0,97,0.00,,---,0.00,VWS V14.01,2014-12-17 05:11:00,
2014-12-17 00:12:00,57.8,57.0,30.11,West,267,0.0,0.0,97,0.00,,---,0.00,VWS V14.01,2014-12-17 05:12:00,
2014-12-17 00:13:00,57.6,56.8,30.11,West,267,0.0,0.0,97,0.00,,---,0.00,VWS V14.01,2014-12-17 05:13:00,
2014-12-17 00:14:00,57.6,56.8,30.11,West,267,0.0,0.0,97,0.00,,---,0.00,VWS V14.01,2014-12-17 05:14:00,
2014-12-17 00:15:00,57.6,56.8,30.11,West,267,0.0,0.0,97,0.00,,---,0.00,VWS V14.01,2014-12-17 05:15:00,
2014-12-17 00:16:00,57.6,56.8,30.11,West,267,0.0,0.0,97,0.00,,---,0.00,VWS V14.01,2014-12-17 05:16:00,
2014-12-17 00:17:00,57.5,56.7,30.11,West,267,0.0,0.0,97,0.00,,---,0.00,VWS V14.01,2014-12-17 05:17:00,
2014-12-17 00:18:00,57.5,56.7,30.11,West,267,0.0,0.0,97,0.00,,---,0.00,VWS V14.01,2014-12-17 05:18:00,
2014-12-17 00:19:00,57.5,56.7,30.11,West,267,0.0,0.0,97,0.00,,---,0.00,VWS V14.01,2014-12-17 05:19:00,
2014-12-17 00:20:00,57.5,56.7,30.11,West,267,0.0,0.0,97,0.00,,---,0.00,VWS V14.01,2014-12-17 05:20:00,
2014-12-17 00:21:00,57.5,56.7,30.11,West,267,0.0,0.0,97,0.00,,---,0.00,VWS V14.01,2014-12-17 05:21:00,
2014-12-17 00:22:00,57.6,56.8,30.11,West,267,0.0,0.0,97,0.00,,---,0.00,VWS V14.01,2014-12-17 05:22:00,
2014-12-17 00:23:00,57.3,56.5,30.11,West,267,0.0,0.0,97,0.00,,---,0.00,VWS V14.01,2014-12-17 05:23:00,
2014-12-17 00:24:00,57.3,56.5,30.11,West,267,0.0,0.0,97,0.00,,---,0.00,VWS V14.01,2014-12-17 05:24:00,
2014-12-17 00:25:00,57.3,56.5,30.11,West,267,0.0,0.0,97,0.00,,---,0.00,VWS V14.01,2014-12-17 05:25:00,
2014-12-17 00:26:00,57.2,56.4,30.11,West,267,0.0,0.0,97,0.00,,---,0.00,VWS V14.01,2014-12-17 05:26:00,
2014-12-17 00:27:00,57.5,56.7,30.11,West,267,0.0,0.0,97,0.00,,---,0.00,VWS V14.01,2014-12-17 05:27:00,
2014-12-17 00:28:00,57.2,56.4,30.11,West,267,0.0,0.0,97,0.00,,---,0.00,VWS V14.01,2014-12-17 05:28:00,
2014-12-17 00:29:00,57.2,56.4,30.11,West,267,0.0,0.0,97,0.00,,---,0.00,VWS V14.01,2014-12-17 05:29:00,
2014-12-17 00:30:00,57.0,56.2,30.11,West,267,0.0,0.0,97,0.00,,---,0.00,VWS V14.01,2014-12-17 05:30:00,
2014-12-17 00:31:00,57.0,56.2,30.11,West,267,0.0,0.0,97,0.00,,---,0.00,VWS V14.01,2014-12-17 05:31:00,
2014-12-17 00:32:00,57.3,56.5,30.11,West,267,0.0,0.0,97,0.00,,---,0.00,VWS V14.01,2014-12-17 05:32:00,
2014-12-17 00:33:00,57.0,56.2,30.11,West,267,0.0,0.0,97,0.00,,---,0.00,VWS V14.01,2014-12-17 05:33:00,
2014-12-17 00:34:00,56.9,56.1,30.11,West,267,0.0,0.0,97,0.00,,---,0.00,VWS V14.01,2014-12-17 05:34:00,
2014-12-17 00:35:00,56.9,56.1,30.11,West,267,0.0,0.0,97,0.00,,---,0.00,VWS V14.01,2014-12-17 05:35:00,
2014-12-17 00:36:00,56.9,56.1,30.11,West,267,0.0,0.0,97,0.00,,---,0.00,VWS V14.01,2014-12-17 05:36:00,
2014-12-17 00:37:00,57.2,56.4,30.11,West,267,0.0,0.0,97,0.00,,---,0.00,VWS V14.01,2014-12-17 05:37:00,
2014-12-17 00:38:00,56.7,55.6,30.11,West,267,0.0,0.0,96,0.00,,---,0.00,VWS V14.01,2014-12-17 05:38:00,
2014-12-17 00:39:00,56.7,55.6,30.11,West,267,0.0,0.0,96,0.00,,---,0.00,VWS V14.01,2014-12-17 05:39:00,
2014-12-17 00:40:00,56.7,55.6,30.11,West,267,0.0,0.0,96,0.00,,---,0.00,VWS V14.01,2014-12-17 05:40:00,
2014-12-17 00:41:00,56.6,55.5,30.11,West,267,0.0,0.0,96,0.00,,---,0.00,VWS V14.01,2014-12-17 05:41:00,
2014-12-17 00:42:00,57.0,56.2,30.11,West,267,0.0,0.0,97,0.00,,---,0.00,VWS V14.01,2014-12-17 05:42:00,
2014-12-17 00:43:00,56.6,55.5,30.11,West,267,0.0,0.0,96,0.00,,---,0.00,VWS V14.01,2014-12-17 05:43:00,
2014-12-17 00:44:00,56.6,55.5,30.10,West,267,0.0,0.0,96,0.00,,---,0.00,VWS V14.01,2014-12-17 05:44:00,
2014-12-17 00:45:00,56.5,55.4,30.10,West,267,0.0,0.0,96,0.00,,---,0.00,VWS V14.01,2014-12-17 05:45:00,
2014-12-17 00:46:00,56.5,55.4,30.10,West,267,0.0,0.0,96,0.00,,---,0.00,VWS V14.01,2014-12-17 05:46:00,
2014-12-17 00:47:00,56.7,55.9,30.11,West,267,0.0,0.0,97,0.00,,---,0.00,VWS V14.01,2014-12-17 05:47:00,
2014-12-17 00:48:00,56.5,55.4,30.10,West,267,0.0,0.0,96,0.00,,---,0.00,VWS V14.01,2014-12-17 05:48:00,
2014-12-17 00:49:00,56.3,55.2,30.10,West,267,0.0,0.0,96,0.00,,---,0.00,VWS V14.01,2014-12-17 05:49:00,
2014-12-17 00:50:00,56.3,55.2,30.10,West,267,0.0,0.0,96,0.00,,---,0.00,VWS V14.01,2014-12-17 05:50:00,
2014-12-17 00:51:00,56.3,55.2,30.10,West,267,0.0,0.0,96,0.00,,---,0.00,VWS V14.01,2014-12-17 05:51:00,
2014-12-17 00:52:00,56.6,55.5,30.11,West,267,0.0,0.0,96,0.00,,---,0.00,VWS V14.01,2014-12-17 05:52:00,
2014-12-17 00:53:00,56.3,55.2,30.10,West,267,0.0,0.0,96,0.00,,---,0.00,VWS V14.01,2014-12-17 05:53:00,
2014-12-17 00:54:00,56.3,55.5,30.10,West,267,0.0,0.0,97,0.00,,---,0.00,VWS V14.01,2014-12-17 05:54:00,
2014-12-17 00:55:00,56.3,55.5,30.10,West,267,0.0,0.0,97,0.00,,---,0.00,VWS V14.01,2014-12-17 05:55:00,
2014-12-17 00:56:00,56.3,55.5,30.10,West,267,0.0,0.0,97,0.00,,---,0.00,VWS V14.01,2014-12-17 05:56:00,
2014-12-17 00:57:00,56.5,55.4,30.10,West,267,0.0,0.0,96,0.00,,---,0.00,VWS V14.01,2014-12-17 05:57:00,
2014-12-17 00:58:00,56.2,55.4,30.10,West,267,0.0,0.0,97,0.00,,---,0.00,VWS V14.01,2014-12-17 05:58:00,
2014-12-17 00:59:00,56.2,55.1,30.10,West,267,0.0,0.0,96,0.00,,---,0.00,VWS V14.01,2014-12-17 05:59:00,
2014-12-17 01:00:00,56.2,55.1,30.10,West,267,0.0,0.0,96,0.00,,---,0.00,VWS V14.01,2014-12-17 06:00:00,
2014-12-17 01:01:00,56.2,55.4,30.10,West,267,0.0,0.0,97,0.00,,---,0.00,VWS V14.01,2014-12-17 06:01:00,
2014-12-17 01:02:00,56.3,55.2,30.10,West,267,0.0,0.0,96,0.00,,---,0.00,VWS V14.01,2014-12-17 06:02:00,
2014-12-17 01:03:00,56.2,55.4,30.10,West,267,0.0,0.0,97,0.00,,---,0.00,VWS V14.01,2014-12-17 06:03:00,
2014-12-17 01:04:00,56.2,55.4,30.10,West,267,0.0,0.0,97,0.00,,---,0.00,VWS V14.01,2014-12-17 06:04:00,
2014-12-17 01:05:00,56.2,55.4,30.10,West,267,0.0,0.0,97,0.00,,---,0.00,VWS V14.01,2014-12-17 06:05:00,
2014-12-17 01:06:00,56.2,55.4,30.10,West,267,0.0,0.0,97,0.00,,---,0.00,VWS V14.01,2014-12-17 06:06:00,
2014-12-17 01:07:00,56.2,55.4,30.10,West,267,0.0,0.0,97,0.00,,---,0.00,VWS V14.01,2014-12-17 06:07:00,
2014-12-17 01:08:00,56.2,55.4,30.10,West,267,0.0,0.0,97,0.00,,---,0.00,VWS V14.01,2014-12-17 06:08:00,
2014-12-17 01:09:00,56.0,55.2,30.10,West,267,0.0,0.0,97,0.00,,---,0.00,VWS V14.01,2014-12-17 06:09:00,
2014-12-17 01:10:00,56.0,55.2,30.10,West,267,0.0,0.0,97,0.00,,---,0.00,VWS V14.01,2014-12-17 06:10:00,
2014-12-17 01:11:00,56.0,55.2,30.10,West,267,0.0,0.0,97,0.00,,---,0.00,VWS V14.01,2014-12-17 06:11:00,
2014-12-17 01:12:00,56.0,55.2,30.10,West,267,0.0,0.0,97,0.00,,---,0.00,VWS V14.01,2014-12-17 06:12:00,
2014-12-17 01:13:00,56.0,55.2,30.10,West,267,0.0,0.0,97,0.00,,---,0.00,VWS V14.01,2014-12-17 06:13:00,
2014-12-17 01:14:00,56.0,55.2,30.10,West,267,0.0,0.0,97,0.00,,---,0.00,VWS V14.01,2014-12-17 06:14:00,
2014-12-17 01:15:00,55.9,55.1,30.09,West,267,0.0,0.0,97,0.00,,---,0.00,VWS V14.01,2014-12-17 06:15:00,
2014-12-17 01:16:00,55.9,55.1,30.09,West,267,0.0,0.0,97,0.00,,---,0.00,VWS V14.01,2014-12-17 06:16:00,
2014-12-17 01:17:00,55.9,55.1,30.09,West,267,0.0,0.0,97,0.00,,---,0.00,VWS V14.01,2014-12-17 06:17:00,
2014-12-17 01:18:00,55.9,55.1,30.09,West,267,0.0,0.0,97,0.00,,---,0.00,VWS V14.01,2014-12-17 06:18:00,
2014-12-17 01:19:00,55.9,55.1,30.09,West,267,0.0,0.0,97,0.00,,---,0.00,VWS V14.01,2014-12-17 06:19:00,
2014-12-17 01:20:00,56.0,55.2,30.10,West,267,0.0,0.0,97,0.00,,---,0.00,VWS V14.01,2014-12-17 06:20:00,
2014-12-17 01:21:00,55.7,54.9,30.09,West,267,0.0,0.0,97,0.00,,---,0.00,VWS V14.01,2014-12-17 06:21:00,
2014-12-17 01:22:00,55.7,54.9,30.09,West,267,0.0,0.0,97,0.00,,---,0.00,VWS V14.01,2014-12-17 06:22:00,
2014-12-17 01:23:00,55.7,54.9,30.09,West,267,0.0,0.0,97,0.00,,---,0.00,VWS V14.01,2014-12-17 06:23:00,
2014-12-17 01:24:00,55.7,54.9,30.09,West,267,0.0,0.0,97,0.00,,---,0.00,VWS V14.01,2014-12-17 06:24:00,
2014-12-17 01:25:00,55.9,55.1,30.09,West,267,0.0,0.0,97,0.00,,---,0.00,VWS V14.01,2014-12-17 06:25:00,
2014-12-17 01:26:00,55.7,54.9,30.09,West,267,0.0,0.0,97,0.00,,---,0.00,VWS V14.01,2014-12-17 06:26:00,
2014-12-17 01:27:00,55.6,54.8,30.09,West,267,0.0,0.0,97,0.00,,---,0.00,VWS V14.01,2014-12-17 06:27:00,
2014-12-17 01:28:00,55.6,54.8,30.09,West,267,0.0,0.0,97,0.00,,---,0.00,VWS V14.01,2014-12-17 06:28:00,
2014-12-17 01:29:00,55.6,54.8,30.09,West,267,0.0,0.0,97,0.00,,---,0.00,VWS V14.01,2014-12-17 06:29:00,
2014-12-17 01:30:00,55.7,54.9,30.09,West,267,0.0,0.0,97,0.00,,---,0.00,VWS V14.01,2014-12-17 06:30:00,
2014-12-17 01:31:00,55.6,54.8,30.09,West,267,0.0,0.0,97,0.00,,---,0.00,VWS V14.01,2014-12-17 06:31:00,
2014-12-17 01:32:00,55.6,54.8,30.09,West,267,0.0,0.0,97,0.00,,---,0.00,VWS V14.01,2014-12-17 06:32:00,
2014-12-17 01:33:00,55.6,54.8,30.09,West,267,0.0,0.0,97,0.00,,---,0.00,VWS V14.01,2014-12-17 06:33:00,
2014-12-17 01:34:00,55.4,54.6,30.09,West,267,0.0,0.0,97,0.00,,---,0.00,VWS V14.01,2014-12-17 06:34:00,
2014-12-17 01:35:00,55.7,54.9,30.09,West,267,0.0,0.0,97,0.00,,---,0.00,VWS V14.01,2014-12-17 06:35:00,
2014-12-17 01:36:00,55.4,54.6,30.09,West,267,0.0,0.0,97,0.00,,---,0.00,VWS V14.01,2014-12-17 06:36:00,
2014-12-17 01:37:00,55.4,54.6,30.09,West,267,0.0,0.0,97,0.00,,---,0.00,VWS V14.01,2014-12-17 06:37:00,
2014-12-17 01:38:00,55.4,54.6,30.09,West,267,0.0,0.0,97,0.00,,---,0.00,VWS V14.01,2014-12-17 06:38:00,
2014-12-17 01:39:00,55.4,54.6,30.09,West,267,0.0,0.0,97,0.00,,---,0.00,VWS V14.01,2014-12-17 06:39:00,
2014-12-17 01:40:00,55.6,54.8,30.09,West,267,0.0,0.0,97,0.00,,---,0.00,VWS V14.01,2014-12-17 06:40:00,
2014-12-17 01:41:00,55.3,54.5,30.09,West,267,0.0,0.0,97,0.00,,---,0.00,VWS V14.01,2014-12-17 06:41:00,
2014-12-17 01:42:00,55.3,54.5,30.09,West,267,0.0,0.0,97,0.00,,---,0.00,VWS V14.01,2014-12-17 06:42:00,
2014-12-17 01:43:00,55.3,54.5,30.09,West,267,0.0,0.0,97,0.00,,---,0.00,VWS V14.01,2014-12-17 06:43:00,
2014-12-17 01:44:00,55.3,54.5,30.09,West,267,0.0,0.0,97,0.00,,---,0.00,VWS V14.01,2014-12-17 06:44:00,
2014-12-17 01:45:00,55.4,54.6,30.09,West,267,0.0,0.0,97,0.00,,---,0.00,VWS V14.01,2014-12-17 06:45:00,
2014-12-17 01:46:00,55.3,54.5,30.09,West,267,0.0,0.0,97,0.00,,---,0.00,VWS V14.01,2014-12-17 06:46:00,
2014-12-17 01:47:00,55.1,54.3,30.09,West,267,0.0,0.0,97,0.00,,---,0.00,VWS V14.01,2014-12-17 06:47:00,
2014-12-17 01:48:00,55.1,54.3,30.09,West,267,0.0,0.0,97,0.00,,---,0.00,VWS V14.01,2014-12-17 06:48:00,
2014-12-17 01:49:00,55.1,54.3,30.09,West,267,0.0,0.0,97,0.00,,---,0.00,VWS V14.01,2014-12-17 06:49:00,
2014-12-17 01:50:00,55.3,54.5,30.09,West,267,0.0,0.0,97,0.00,,---,0.00,VWS V14.01,2014-12-17 06:50:00,
2014-12-17 01:51:00,55.1,54.3,30.09,West,267,0.0,0.0,97,0.00,,---,0.00,VWS V14.01,2014-12-17 06:51:00,
2014-12-17 01:52:00,55.1,54.3,30.09,West,267,0.0,0.0,97,0.00,,---,0.00,VWS V14.01,2014-12-17 06:52:00,
2014-12-17 01:53:00,55.1,54.3,30.09,West,267,0.0,0.0,97,0.00,,---,0.00,VWS V14.01,2014-12-17 06:53:00,
2014-12-17 01:54:00,55.1,54.3,30.09,West,267,0.0,0.0,97,0.00,,---,0.00,VWS V14.01,2014-12-17 06:54:00,
2014-12-17 01:55:00,55.3,54.5,30.09,West,267,0.0,0.0,97,0.00,,---,0.00,VWS V14.01,2014-12-17 06:55:00,
2014-12-17 01:56:00,55.1,54.3,30.09,West,267,0.0,0.0,97,0.00,,---,0.00,VWS V14.01,2014-12-17 06:56:00,
2014-12-17 01:57:00,55.0,54.2,30.09,West,267,0.0,0.0,97,0.00,,---,0.00,VWS V14.01,2014-12-17 06:57:00,
2014-12-17 01:58:00,55.0,54.2,30.09,West,267,0.0,0.0,97,0.00,,---,0.00,VWS V14.01,2014-12-17 06:58:00,
2014-12-17 01:59:00,55.0,54.2,30.09,West,267,0.0,0.0,97,0.00,,---,0.00,VWS V14.01,2014-12-17 06:59:00,
2014-12-17 02:00:00,55.0,54.2,30.09,West,267,0.0,0.0,97,0.00,,---,0.00,VWS V14.01,2014-12-17 07:00:00,
2014-12-17 02:01:00,55.1,54.3,30.09,West,267,0.0,0.0,97,0.00,,---,0.00,VWS V14.01,2014-12-17 07:01:00,
2014-12-17 02:02:00,55.0,54.2,30.09,West,267,0.0,0.0,97,0.00,,---,0.00,VWS V14.01,2014-12-17 07:02:00,
2014-12-17 02:03:00,55.0,54.2,30.09,West,267,0.0,0.0,97,0.00,,---,0.00,VWS V14.01,2014-12-17 07:03:00,
2014-12-17 02:04:00,55.0,54.2,30.09,West,267,0.0,0.0,97,0.00,,---,0.00,VWS V14.01,2014-12-17 07:04:00,
2014-12-17 02:05:00,55.0,54.2,30.09,West,267,0.0,0.0,97,0.00,,---,0.00,VWS V14.01,2014-12-17 07:05:00,
2014-12-17 02:06:00,55.0,54.2,30.09,West,267,0.0,0.0,97,0.00,,---,0.00,VWS V14.01,2014-12-17 07:06:00,
2014-12-17 02:07:00,54.8,54.0,30.09,West,267,0.0,0.0,97,0.00,,---,0.00,VWS V14.01,2014-12-17 07:07:00,
2014-12-17 02:08:00,54.8,54.0,30.09,West,267,0.0,0.0,97,0.00,,---,0.00,VWS V14.01,2014-12-17 07:08:00,
2014-12-17 02:09:00,55.0,54.2,30.09,West,267,0.0,0.0,97,0.00,,---,0.00,VWS V14.01,2014-12-17 07:09:00,
2014-12-17 02:10:00,54.8,54.0,30.09,West,267,0.0,0.0,97,0.00,,---,0.00,VWS V14.01,2014-12-17 07:10:00,
2014-12-17 02:11:00,54.8,54.0,30.09,West,267,0.0,0.0,97,0.00,,---,0.00,VWS V14.01,2014-12-17 07:11:00,
2014-12-17 02:12:00,54.8,54.0,30.09,West,267,0.0,0.0,97,0.00,,---,0.00,VWS V14.01,2014-12-17 07:12:00,
2014-12-17 02:13:00,54.8,54.0,30.09,West,267,0.0,0.0,97,0.00,,---,0.00,VWS V14.01,2014-12-17 07:13:00,
2014-12-17 02:14:00,54.8,54.0,30.09,West,267,0.0,0.0,97,0.00,,---,0.00,VWS V14.01,2014-12-17 07:14:00,
2014-12-17 02:15:00,54.8,54.0,30.09,West,267,0.0,0.0,97,0.00,,---,0.00,VWS V14.01,2014-12-17 07:15:00,
2014-12-17 02:16:00,54.8,54.2,30.09,West,267,0.0,0.0,98,0.00,,---,0.00,VWS V14.01,2014-12-17 07:16:00,
2014-12-17 02:17:00,54.8,54.0,30.09,West,267,0.0,0.0,97,0.00,,---,0.00,VWS V14.01,2014-12-17 07:17:00,
2014-12-17 02:18:00,54.8,54.2,30.09,West,267,0.0,0.0,98,0.00,,---,0.00,VWS V14.01,2014-12-17 07:18:00,
2014-12-17 02:19:00,54.7,54.2,30.09,West,267,0.0,0.0,98,0.00,,---,0.00,VWS V14.01,2014-12-17 07:19:00,
2014-12-17 02:20:00,54.7,54.2,30.09,West,267,0.0,0.0,98,0.00,,---,0.00,VWS V14.01,2014-12-17 07:20:00,
2014-12-17 02:21:00,54.7,54.2,30.09,West,267,0.0,0.0,98,0.00,,---,0.00,VWS V14.01,2014-12-17 07:21:00,
2014-12-17 02:22:00,54.8,54.0,30.09,West,267,0.0,0.0,97,0.00,,---,0.00,VWS V14.01,2014-12-17 07:22:00,
2014-12-17 02:23:00,54.7,54.2,30.09,West,267,0.0,0.0,98,0.00,,---,0.00,VWS V14.01,2014-12-17 07:23:00,
2014-12-17 02:24:00,54.7,54.2,30.09,West,267,0.0,0.0,98,0.00,,---,0.00,VWS V14.01,2014-12-17 07:24:00,
2014-12-17 02:25:00,54.7,54.2,30.09,West,267,0.0,0.0,98,0.00,,---,0.00,VWS V14.01,2014-12-17 07:25:00,
2014-12-17 02:26:00,54.7,54.2,30.09,West,267,0.0,0.0,98,0.00,,---,0.00,VWS V14.01,2014-12-17 07:26:00,
2014-12-17 02:27:00,54.8,54.2,30.09,West,267,0.0,0.0,98,0.00,,---,0.00,VWS V14.01,2014-12-17 07:27:00,
2014-12-17 02:28:00,54.7,54.2,30.09,West,267,0.0,0.0,98,0.00,,---,0.00,VWS V14.01,2014-12-17 07:28:00,
2014-12-17 02:29:00,54.7,54.2,30.08,West,267,0.0,0.0,98,0.00,,---,0.00,VWS V14.01,2014-12-17 07:29:00,
2014-12-17 02:30:00,54.5,54.0,30.08,West,267,0.0,0.0,98,0.00,,---,0.00,VWS V14.01,2014-12-17 07:30:00,
2014-12-17 02:31:00,54.5,54.0,30.08,West,267,0.0,0.0,98,0.00,,---,0.00,VWS V14.01,2014-12-17 07:31:00,
2014-12-17 02:32:00,54.7,54.2,30.09,West,267,0.0,0.0,98,0.00,,---,0.00,VWS V14.01,2014-12-17 07:32:00,
2014-12-17 02:33:00,54.5,54.0,30.08,West,267,0.0,0.0,98,0.00,,---,0.00,VWS V14.01,2014-12-17 07:33:00,
2014-12-17 02:34:00,54.5,54.0,30.08,West,267,0.0,0.0,98,0.00,,---,0.00,VWS V14.01,2014-12-17 07:34:00,
2014-12-17 02:35:00,54.5,54.0,30.08,West,267,0.0,0.0,98,0.00,,---,0.00,VWS V14.01,2014-12-17 07:35:00,
2014-12-17 02:36:00,54.5,54.0,30.08,West,267,0.0,0.0,98,0.00,,---,0.00,VWS V14.01,2014-12-17 07:36:00,
2014-12-17 02:37:00,54.7,54.2,30.09,West,267,0.0,0.0,98,0.00,,---,0.00,VWS V14.01,2014-12-17 07:37:00,
2014-12-17 02:38:00,54.5,54.0,30.08,West,267,0.0,0.0,98,0.00,,---,0.00,VWS V14.01,2014-12-17 07:38:00,
2014-12-17 02:39:00,54.4,53.8,30.08,West,267,0.0,0.0,98,0.00,,---,0.00,VWS V14.01,2014-12-17 07:39:00,
2014-12-17 02:40:00,54.4,53.8,30.08,West,267,0.0,0.0,98,0.00,,---,0.00,VWS V14.01,2014-12-17 07:40:00,
2014-12-17 02:41:00,54.4,53.8,30.08,West,267,0.0,0.0,98,0.00,,---,0.00,VWS V14.01,2014-12-17 07:41:00,
2014-12-17 02:42:00,54.5,54.0,30.08,West,267,0.0,0.0,98,0.00,,---,0.00,VWS V14.01,2014-12-17 07:42:00,
2014-12-17 02:43:00,54.4,53.8,30.08,West,267,0.0,0.0,98,0.00,,---,0.00,VWS V14.01,2014-12-17 07:43:00,
2014-12-17 02:44:00,54.4,53.8,30.08,West,267,0.0,0.0,98,0.00,,---,0.00,VWS V14.01,2014-12-17 07:44:00,
2014-12-17 02:45:00,54.4,53.8,30.08,West,267,0.0,0.0,98,0.00,,---,0.00,VWS V14.01,2014-12-17 07:45:00,
2014-12-17 02:46:00,54.2,53.7,30.08,West,267,0.0,0.0,98,0.00,,---,0.00,VWS V14.01,2014-12-17 07:46:00,
2014-12-17 02:47:00,54.5,54.0,30.08,West,267,0.0,0.0,98,0.00,,---,0.00,VWS V14.01,2014-12-17 07:47:00,
2014-12-17 02:48:00,54.2,53.7,30.08,West,267,0.0,0.0,98,0.00,,---,0.00,VWS V14.01,2014-12-17 07:48:00,
2014-12-17 02:49:00,54.2,53.7,30.08,West,267,0.0,0.0,98,0.00,,---,0.00,VWS V14.01,2014-12-17 07:49:00,
2014-12-17 02:50:00,54.2,53.7,30.08,West,267,0.0,0.0,98,0.00,,---,0.00,VWS V14.01,2014-12-17 07:50:00,
2014-12-17 02:51:00,54.2,53.7,30.08,West,267,0.0,0.0,98,0.00,,---,0.00,VWS V14.01,2014-12-17 07:51:00,
2014-12-17 02:52:00,54.4,53.8,30.08,West,267,0.0,0.0,98,0.00,,---,0.00,VWS V14.01,2014-12-17 07:52:00,
2014-12-17 02:53:00,54.1,53.5,30.08,West,267,0.0,0.0,98,0.00,,---,0.00,VWS V14.01,2014-12-17 07:53:00,
2014-12-17 02:54:00,54.1,53.5,30.08,West,267,0.0,0.0,98,0.00,,---,0.00,VWS V14.01,2014-12-17 07:54:00,
2014-12-17 02:55:00,54.1,53.5,30.08,West,267,0.0,0.0,98,0.00,,---,0.00,VWS V14.01,2014-12-17 07:55:00,
2014-12-17 02:56:00,54.1,53.5,30.08,West,267,0.0,0.0,98,0.00,,---,0.00,VWS V14.01,2014-12-17 07:56:00,
2014-12-17 02:57:00,54.1,53.5,30.08,West,267,0.0,0.0,98,0.00,,---,0.00,VWS V14.01,2014-12-17 07:57:00,
2014-12-17 02:58:00,54.2,53.7,30.08,West,267,0.0,0.0,98,0.00,,---,0.00,VWS V14.01,2014-12-17 07:58:00,
2014-12-17 02:59:00,53.9,53.3,30.08,West,267,0.0,0.0,98,0.00,,---,0.00,VWS V14.01,2014-12-17 07:59:00,
2014-12-17 03:00:00,53.9,53.3,30.08,West,267,0.0,0.0,98,0.00,,---,0.00,VWS V14.01,2014-12-17 08:00:00,
2014-12-17 03:01:00,53.9,53.3,30.08,West,267,0.0,0.0,98,0.00,,---,0.00,VWS V14.01,2014-12-17 08:01:00,
2014-12-17 03:02:00,53.9,53.3,30.08,West,267,0.0,0.0,98,0.00,,---,0.00,VWS V14.01,2014-12-17 08:02:00,
2014-12-17 03:03:00,53.8,53.2,30.08,West,267,0.0,0.0,98,0.00,,---,0.00,VWS V14.01,2014-12-17 08:03:00,
2014-12-17 03:04:00,53.8,53.2,30.08,West,267,0.0,0.0,98,0.00,,---,0.00,VWS V14.01,2014-12-17 08:04:00,
2014-12-17 03:05:00,53.8,53.2,30.08,West,267,0.0,0.0,98,0.00,,---,0.00,VWS V14.01,2014-12-17 08:05:00,
2014-12-17 03:06:00,53.8,53.2,30.08,West,267,0.0,0.0,98,0.00,,---,0.00,VWS V14.01,2014-12-17 08:06:00,
2014-12-17 03:07:00,53.8,53.2,30.08,West,267,0.0,0.0,98,0.00,,---,0.00,VWS V14.01,2014-12-17 08:07:00,
2014-12-17 03:08:00,53.6,53.0,30.08,West,267,0.0,0.0,98,0.00,,---,0.00,VWS V14.01,2014-12-17 08:08:00,
2014-12-17 03:09:00,53.9,53.3,30.08,West,267,0.0,0.0,98,0.00,,---,0.00,VWS V14.01,2014-12-17 08:09:00,
2014-12-17 03:10:00,53.6,53.0,30.08,West,267,0.0,0.0,98,0.00,,---,0.00,VWS V14.01,2014-12-17 08:10:00,
2014-12-17 03:11:00,53.6,53.0,30.08,West,267,0.0,0.0,98,0.00,,---,0.00,VWS V14.01,2014-12-17 08:11:00,
2014-12-17 03:12:00,53.6,53.0,30.08,West,267,0.0,0.0,98,0.00,,---,0.00,VWS V14.01,2014-12-17 08:12:00,
2014-12-17 03:13:00,53.6,53.0,30.08,West,267,0.0,0.0,98,0.00,,---,0.00,VWS V14.01,2014-12-17 08:13:00,
2014-12-17 03:14:00,53.6,53.0,30.08,West,267,0.0,0.0,98,0.00,,---,0.00,VWS V14.01,2014-12-17 08:14:00,
2014-12-17 03:15:00,53.8,53.2,30.08,West,267,0.0,0.0,98,0.00,,---,0.00,VWS V14.01,2014-12-17 08:15:00,
2014-12-17 03:16:00,53.5,53.0,30.08,West,267,0.0,0.0,98,0.00,,---,0.00,VWS V14.01,2014-12-17 08:16:00,
2014-12-17 03:17:00,53.5,53.0,30.08,West,267,0.0,0.0,98,0.00,,---,0.00,VWS V14.01,2014-12-17 08:17:00,
2014-12-17 03:18:00,53.5,53.0,30.08,West,267,0.0,0.0,98,0.00,,---,0.00,VWS V14.01,2014-12-17 08:18:00,
2014-12-17 03:19:00,53.5,53.0,30.08,West,267,0.0,0.0,98,0.00,,---,0.00,VWS V14.01,2014-12-17 08:19:00,
2014-12-17 03:20:00,53.6,53.0,30.08,West,267,0.0,0.0,98,0.00,,---,0.00,VWS V14.01,2014-12-17 08:20:00,
2014-12-17 03:21:00,53.5,53.0,30.08,West,267,0.0,0.0,98,0.00,,---,0.00,VWS V14.01,2014-12-17 08:21:00,
2014-12-17 03:22:00,53.5,53.0,30.08,West,267,0.0,0.0,98,0.00,,---,0.00,VWS V14.01,2014-12-17 08:22:00,
2014-12-17 03:23:00,53.5,53.0,30.08,West,267,0.0,0.0,98,0.00,,---,0.00,VWS V14.01,2014-12-17 08:23:00,
2014-12-17 03:24:00,53.5,53.0,30.08,West,267,0.0,0.0,98,0.00,,---,0.00,VWS V14.01,2014-12-17 08:24:00,
2014-12-17 03:25:00,53.6,53.0,30.08,West,267,0.0,0.0,98,0.00,,---,0.00,VWS V14.01,2014-12-17 08:25:00,
2014-12-17 03:26:00,53.3,52.8,30.08,West,267,0.0,0.0,98,0.00,,---,0.00,VWS V14.01,2014-12-17 08:26:00,
2014-12-17 03:27:00,53.3,52.8,30.08,West,267,0.0,0.0,98,0.00,,---,0.00,VWS V14.01,2014-12-17 08:27:00,
2014-12-17 03:28:00,53.3,52.8,30.08,West,267,0.0,0.0,98,0.00,,---,0.00,VWS V14.01,2014-12-17 08:28:00,
2014-12-17 03:29:00,53.3,52.8,30.08,West,267,0.0,0.0,98,0.00,,---,0.00,VWS V14.01,2014-12-17 08:29:00,
2014-12-17 03:30:00,53.5,53.0,30.08,West,267,0.0,0.0,98,0.00,,---,0.00,VWS V14.01,2014-12-17 08:30:00,
2014-12-17 03:31:00,53.3,52.8,30.08,West,267,0.0,0.0,98,0.00,,---,0.00,VWS V14.01,2014-12-17 08:31:00,
2014-12-17 03:32:00,53.3,52.8,30.08,West,267,0.0,0.0,98,0.00,,---,0.00,VWS V14.01,2014-12-17 08:32:00,
2014-12-17 03:33:00,53.3,52.8,30.08,West,267,0.0,0.0,98,0.00,,---,0.00,VWS V14.01,2014-12-17 08:33:00,
2014-12-17 03:34:00,53.3,52.8,30.08,West,267,0.0,0.0,98,0.00,,---,0.00,VWS V14.01,2014-12-17 08:34:00,
2014-12-17 03:35:00,53.3,52.8,30.08,West,267,0.0,0.0,98,0.00,,---,0.00,VWS V14.01,2014-12-17 08:35:00,
2014-12-17 03:36:00,53.3,52.8,30.08,West,267,0.0,0.0,98,0.00,,---,0.00,VWS V14.01,2014-12-17 08:36:00,
2014-12-17 03:37:00,53.3,52.8,30.08,West,267,0.0,0.0,98,0.00,,---,0.00,VWS V14.01,2014-12-17 08:37:00,
2014-12-17 03:38:00,53.3,53.0,30.08,West,267,0.0,0.0,99,0.00,,---,0.00,VWS V14.01,2014-12-17 08:38:00,
2014-12-17 03:39:00,53.3,52.8,30.08,West,267,0.0,0.0,98,0.00,,---,0.00,VWS V14.01,2014-12-17 08:39:00,
2014-12-17 03:40:00,53.3,52.8,30.08,West,267,0.0,0.0,98,0.00,,---,0.00,VWS V14.01,2014-12-17 08:40:00,
2014-12-17 03:41:00,53.3,53.0,30.08,West,267,0.0,0.0,99,0.00,,---,0.00,VWS V14.01,2014-12-17 08:41:00,
2014-12-17 03:42:00,53.3,53.0,30.08,West,267,0.0,0.0,99,0.00,,---,0.00,VWS V14.01,2014-12-17 08:42:00,
2014-12-17 03:43:00,53.3,53.0,30.08,West,267,0.0,0.0,99,0.00,,---,0.00,VWS V14.01,2014-12-17 08:43:00,
2014-12-17 03:44:00,53.3,53.0,30.08,West,267,0.0,0.0,99,0.00,,---,0.00,VWS V14.01,2014-12-17 08:44:00,
2014-12-17 03:45:00,53.3,52.8,30.08,West,267,0.0,0.0,98,0.00,,---,0.00,VWS V14.01,2014-12-17 08:45:00,
2014-12-17 03:46:00,53.3,53.0,30.08,West,267,0.0,0.0,99,0.00,,---,0.00,VWS V14.01,2014-12-17 08:46:00,
2014-12-17 03:47:00,53.3,53.0,30.08,West,267,0.0,0.0,99,0.00,,---,0.00,VWS V14.01,2014-12-17 08:47:00,
2014-12-17 03:48:00,53.2,52.9,30.08,West,267,0.0,0.0,99,0.00,,---,0.00,VWS V14.01,2014-12-17 08:48:00,
2014-12-17 03:49:00,53.2,52.9,30.08,West,267,0.0,0.0,99,0.00,,---,0.00,VWS V14.01,2014-12-17 08:49:00,
2014-12-17 03:50:00,53.2,52.9,30.08,West,267,0.0,0.0,99,0.00,,---,0.00,VWS V14.01,2014-12-17 08:50:00,
2014-12-17 03:51:00,53.3,53.0,30.08,West,267,0.0,0.0,99,0.00,,---,0.00,VWS V14.01,2014-12-17 08:51:00,
2014-12-17 03:52:00,53.2,52.9,30.08,West,267,0.0,0.0,99,0.00,,---,0.00,VWS V14.01,2014-12-17 08:52:00,
2014-12-17 03:53:00,53.2,52.9,30.08,West,267,0.0,0.0,99,0.00,,---,0.00,VWS V14.01,2014-12-17 08:53:00,
2014-12-17 03:54:00,53.2,52.9,30.08,West,267,0.0,0.0,99,0.00,,---,0.00,VWS V14.01,2014-12-17 08:54:00,
2014-12-17 03:55:00,53.2,52.9,30.08,West,267,0.0,0.0,99,0.00,,---,0.00,VWS V14.01,2014-12-17 08:55:00,
2014-12-17 03:56:00,53.2,52.9,30.08,West,267,0.0,0.0,99,0.00,,---,0.00,VWS V14.01,2014-12-17 08:56:00,
2014-12-17 03:57:00,53.2,52.9,30.08,West,267,0.0,0.0,99,0.00,,---,0.00,VWS V14.01,2014-12-17 08:57:00,
2014-12-17 03:58:00,53.2,52.9,30.08,West,267,0.0,0.0,99,0.00,,---,0.00,VWS V14.01,2014-12-17 08:58:00,
2014-12-17 03:59:00,53.2,52.9,30.08,West,267,0.0,0.0,99,0.00,,---,0.00,VWS V14.01,2014-12-17 08:59:00,
2014-12-17 04:00:00,53.2,52.9,30.08,West,267,0.0,0.0,99,0.00,,---,0.00,VWS V14.01,2014-12-17 09:00:00,
2014-12-17 04:01:00,53.2,52.9,30.08,West,267,0.0,0.0,99,0.00,,---,0.00,VWS V14.01,2014-12-17 09:01:00,
2014-12-17 04:02:00,53.2,52.9,30.08,West,267,0.0,0.0,99,0.00,,---,0.00,VWS V14.01,2014-12-17 09:02:00,
2014-12-17 04:03:00,53.2,52.9,30.08,West,267,0.0,0.0,99,0.00,,---,0.00,VWS V14.01,2014-12-17 09:03:00,
2014-12-17 04:04:00,53.2,52.9,30.08,West,267,0.0,0.0,99,0.00,,---,0.00,VWS V14.01,2014-12-17 09:04:00,
2014-12-17 04:05:00,53.2,52.9,30.08,West,267,0.0,0.0,99,0.00,,---,0.00,VWS V14.01,2014-12-17 09:05:00,
2014-12-17 04:06:00,53.1,52.8,30.08,West,267,0.0,0.0,99,0.00,,---,0.00,VWS V14.01,2014-12-17 09:06:00,
2014-12-17 04:07:00,53.1,52.8,30.08,West,267,0.0,0.0,99,0.00,,---,0.00,VWS V14.01,2014-12-17 09:07:00,
2014-12-17 04:08:00,53.1,52.8,30.08,West,267,0.0,0.0,99,0.00,,---,0.00,VWS V14.01,2014-12-17 09:08:00,
2014-12-17 04:09:00,53.2,52.9,30.08,West,267,0.0,0.0,99,0.00,,---,0.00,VWS V14.01,2014-12-17 09:09:00,
2014-12-17 04:10:00,53.1,53.1,30.08,West,267,0.0,0.0,100,0.00,,---,0.00,VWS V14.01,2014-12-17 09:10:00,
2014-12-17 04:11:00,53.1,53.1,30.08,West,267,0.0,0.0,100,0.00,,---,0.00,VWS V14.01,2014-12-17 09:11:00,
2014-12-17 04:12:00,53.1,53.1,30.08,West,267,0.0,0.0,100,0.00,,---,0.00,VWS V14.01,2014-12-17 09:12:00,
2014-12-17 04:13:00,53.1,53.1,30.08,West,267,0.0,0.0,100,0.00,,---,0.00,VWS V14.01,2014-12-17 09:13:00,
2014-12-17 04:14:00,53.2,52.9,30.08,West,267,0.0,0.0,99,0.00,,---,0.00,VWS V14.01,2014-12-17 09:14:00,
2014-12-17 04:15:00,53.1,53.1,30.08,West,267,0.0,0.0,100,0.00,,---,0.00,VWS V14.01,2014-12-17 09:15:00,
2014-12-17 04:16:00,53.1,53.1,30.08,West,267,0.0,0.0,100,0.00,,---,0.00,VWS V14.01,2014-12-17 09:16:00,
2014-12-17 04:17:00,53.1,53.1,30.08,West,267,0.0,0.0,100,0.00,,---,0.00,VWS V14.01,2014-12-17 09:17:00,
2014-12-17 04:18:00,53.1,53.1,30.08,West,267,0.0,0.0,100,0.00,,---,0.00,VWS V14.01,2014-12-17 09:18:00,
2014-12-17 04:19:00,53.1,53.1,30.08,West,267,0.0,0.0,100,0.00,,---,0.00,VWS V14.01,2014-12-17 09:19:00,
2014-12-17 04:20:00,53.1,53.1,30.08,West,267,0.0,0.0,100,0.00,,---,0.00,VWS V14.01,2014-12-17 09:20:00,
2014-12-17 04:21:00,53.2,53.2,30.08,West,267,0.0,0.0,100,0.00,,---,0.00,VWS V14.01,2014-12-17 09:21:00,
2014-12-17 04:22:00,53.2,53.2,30.08,West,267,0.0,0.0,100,0.00,,---,0.00,VWS V14.01,2014-12-17 09:22:00,
2014-12-17 04:23:00,53.2,53.2,30.08,West,267,0.0,0.0,100,0.00,,---,0.00,VWS V14.01,2014-12-17 09:23:00,
2014-12-17 04:24:00,53.1,53.1,30.08,West,267,0.0,0.0,100,0.00,,---,0.00,VWS V14.01,2014-12-17 09:24:00,
2014-12-17 04:25:00,53.2,53.2,30.08,West,267,0.0,0.0,100,0.00,,---,0.00,VWS V14.01,2014-12-17 09:25:00,
2014-12-17 04:26:00,53.2,53.2,30.08,West,267,0.0,0.0,100,0.00,,---,0.00,VWS V14.01,2014-12-17 09:26:00,
2014-12-17 04:27:00,53.2,53.2,30.08,West,267,0.0,0.0,100,0.00,,---,0.00,VWS V14.01,2014-12-17 09:27:00,
2014-12-17 04:28:00,53.2,53.2,30.08,West,267,0.0,0.0,100,0.00,,---,0.00,VWS V14.01,2014-12-17 09:28:00,
2014-12-17 04:29:00,53.1,53.1,30.08,West,267,0.0,0.0,100,0.00,,---,0.00,VWS V14.01,2014-12-17 09:29:00,
2014-12-17 04:30:00,53.2,53.2,30.08,West,267,0.0,0.0,100,0.00,,---,0.00,VWS V14.01,2014-12-17 09:30:00,
2014-12-17 04:31:00,53.2,53.2,30.08,West,267,0.0,0.0,100,0.00,,---,0.00,VWS V14.01,2014-12-17 09:31:00,
2014-12-17 04:32:00,53.2,53.2,30.08,West,267,0.0,0.0,100,0.00,,---,0.00,VWS V14.01,2014-12-17 09:32:00,
2014-12-17 04:33:00,53.2,53.2,30.08,West,267,0.0,0.0,100,0.00,,---,0.00,VWS V14.01,2014-12-17 09:33:00,
2014-12-17 04:34:00,53.2,53.2,30.08,West,267,0.0,0.0,100,0.00,,---,0.00,VWS V14.01,2014-12-17 09:34:00,
2014-12-17 04:35:00,53.2,53.2,30.08,West,267,0.0,0.0,100,0.00,,---,0.00,VWS V14.01,2014-12-17 09:35:00,
2014-12-17 04:36:00,53.2,53.2,30.08,West,267,0.0,0.0,100,0.00,,---,0.00,VWS V14.01,2014-12-17 09:36:00,
2014-12-17 04:37:00,53.2,53.2,30.08,West,267,0.0,0.0,100,0.00,,---,0.00,VWS V14.01,2014-12-17 09:37:00,
2014-12-17 04:38:00,53.2,53.2,30.08,West,267,0.0,0.0,100,0.00,,---,0.00,VWS V14.01,2014-12-17 09:38:00,
2014-12-17 04:39:00,53.2,53.2,30.08,West,267,0.0,0.0,100,0.00,,---,0.00,VWS V14.01,2014-12-17 09:39:00,
2014-12-17 04:40:00,53.1,53.1,30.08,West,267,0.0,0.0,100,0.00,,---,0.00,VWS V14.01,2014-12-17 09:40:00,
2014-12-17 04:41:00,53.2,53.2,30.08,West,267,0.0,0.0,100,0.00,,---,0.00,VWS V14.01,2014-12-17 09:41:00,
2014-12-17 04:42:00,53.2,53.2,30.08,West,267,0.0,0.0,100,0.00,,---,0.00,VWS V14.01,2014-12-17 09:42:00,
2014-12-17 04:43:00,53.2,53.2,30.08,West,267,0.0,0.0,100,0.00,,---,0.00,VWS V14.01,2014-12-17 09:43:00,
2014-12-17 04:44:00,53.2,53.2,30.08,West,267,0.0,0.0,100,0.00,,---,0.00,VWS V14.01,2014-12-17 09:44:00,
2014-12-17 04:45:00,53.2,53.2,30.08,West,267,0.0,0.0,100,0.00,,---,0.00,VWS V14.01,2014-12-17 09:45:00,
2014-12-17 04:46:00,53.2,53.2,30.08,West,267,0.0,0.0,100,0.00,,---,0.00,VWS V14.01,2014-12-17 09:46:00,
2014-12-17 04:47:00,53.2,53.2,30.08,West,267,0.0,0.0,100,0.00,,---,0.00,VWS V14.01,2014-12-17 09:47:00,
2014-12-17 04:48:00,53.1,53.1,30.08,West,267,0.0,0.0,100,0.00,,---,0.00,VWS V14.01,2014-12-17 09:48:00,
2014-12-17 04:49:00,53.1,53.1,30.08,West,267,0.0,0.0,100,0.00,,---,0.00,VWS V14.01,2014-12-17 09:49:00,
2014-12-17 04:50:00,53.1,53.1,30.08,West,267,0.0,0.0,100,0.00,,---,0.00,VWS V14.01,2014-12-17 09:50:00,
2014-12-17 04:51:00,53.1,53.1,30.08,West,267,0.0,0.0,100,0.00,,---,0.00,VWS V14.01,2014-12-17 09:51:00,
2014-12-17 04:52:00,53.1,53.1,30.08,West,267,0.0,0.0,100,0.00,,---,0.00,VWS V14.01,2014-12-17 09:52:00,
2014-12-17 04:53:00,53.1,53.1,30.08,West,267,0.0,0.0,100,0.00,,---,0.00,VWS V14.01,2014-12-17 09:53:00,
2014-12-17 04:54:00,53.1,53.1,30.08,West,267,0.0,0.0,100,0.00,,---,0.00,VWS V14.01,2014-12-17 09:54:00,
2014-12-17 04:55:00,53.1,53.1,30.08,West,267,0.0,0.0,100,0.00,,---,0.00,VWS V14.01,2014-12-17 09:55:00,
2014-12-17 04:56:00,53.1,53.1,30.08,West,267,0.0,0.0,100,0.00,,---,0.00,VWS V14.01,2014-12-17 09:56:00,
2014-12-17 04:57:00,53.1,53.1,30.08,West,267,0.0,0.0,100,0.00,,---,0.00,VWS V14.01,2014-12-17 09:57:00,
2014-12-17 04:58:00,53.1,53.1,30.08,West,267,0.0,0.0,100,0.00,,---,0.00,VWS V14.01,2014-12-17 09:58:00,
2014-12-17 04:59:00,53.1,53.1,30.08,West,267,0.0,0.0,100,0.00,,---,0.00,VWS V14.01,2014-12-17 09:59:00,
2014-12-17 05:00:00,53.1,53.1,30.08,West,267,0.0,0.0,100,0.00,,---,0.00,VWS V14.01,2014-12-17 10:00:00,
2014-12-17 05:01:00,53.1,53.1,30.08,West,267,0.0,0.0,100,0.00,,---,0.00,VWS V14.01,2014-12-17 10:01:00,
2014-12-17 05:02:00,53.1,53.1,30.08,West,267,0.0,0.0,100,0.00,,---,0.00,VWS V14.01,2014-12-17 10:02:00,
2014-12-17 05:03:00,53.2,53.2,30.08,West,267,0.0,0.0,100,0.00,,---,0.00,VWS V14.01,2014-12-17 10:03:00,
2014-12-17 05:04:00,53.2,53.2,30.08,West,267,0.0,0.0,100,0.00,,---,0.00,VWS V14.01,2014-12-17 10:04:00,
2014-12-17 05:05:00,53.1,53.1,30.08,West,267,0.0,0.0,100,0.00,,---,0.00,VWS V14.01,2014-12-17 10:05:00,
2014-12-17 05:06:00,53.2,53.2,30.08,West,267,0.0,0.0,100,0.00,,---,0.00,VWS V14.01,2014-12-17 10:06:00,
2014-12-17 05:07:00,53.2,53.2,30.08,West,267,0.0,0.0,100,0.00,,---,0.00,VWS V14.01,2014-12-17 10:07:00,
2014-12-17 05:08:00,53.2,53.2,30.08,West,267,0.0,0.0,100,0.00,,---,0.00,VWS V14.01,2014-12-17 10:08:00,
2014-12-17 05:09:00,53.2,53.2,30.08,West,267,0.0,0.0,100,0.00,,---,0.00,VWS V14.01,2014-12-17 10:09:00,
2014-12-17 05:10:00,53.1,53.1,30.08,West,267,0.0,0.0,100,0.00,,---,0.00,VWS V14.01,2014-12-17 10:10:00,
2014-12-17 05:11:00,53.1,53.1,30.08,West,267,0.0,0.0,100,0.00,,---,0.00,VWS V14.01,2014-12-17 10:11:00,
2014-12-17 05:12:00,53.1,53.1,30.08,West,267,0.0,0.0,100,0.00,,---,0.00,VWS V14.01,2014-12-17 10:12:00,
2014-12-17 05:13:00,53.1,53.1,30.08,West,267,0.0,0.0,100,0.00,,---,0.00,VWS V14.01,2014-12-17 10:13:00,
2014-12-17 05:14:00,53.1,53.1,30.08,West,267,0.0,0.0,100,0.00,,---,0.00,VWS V14.01,2014-12-17 10:14:00,
2014-12-17 05:15:00,53.2,53.2,30.08,West,267,0.0,0.0,100,0.00,,---,0.00,VWS V14.01,2014-12-17 10:15:00,
2014-12-17 05:16:00,53.1,53.1,30.08,West,267,0.0,0.0,100,0.00,,---,0.00,VWS V14.01,2014-12-17 10:16:00,
2014-12-17 05:17:00,52.9,52.9,30.08,West,267,0.0,0.0,100,0.00,,---,0.00,VWS V14.01,2014-12-17 10:17:00,
2014-12-17 05:18:00,52.9,52.9,30.08,West,267,0.0,0.0,100,0.00,,---,0.00,VWS V14.01,2014-12-17 10:18:00,
2014-12-17 05:19:00,52.9,52.9,30.08,West,267,0.0,0.0,100,0.00,,---,0.00,VWS V14.01,2014-12-17 10:19:00,
2014-12-17 05:20:00,53.1,53.1,30.08,West,267,0.0,0.0,100,0.00,,---,0.00,VWS V14.01,2014-12-17 10:20:00,
2014-12-17 05:21:00,52.9,52.9,30.08,West,267,0.0,0.0,100,0.00,,---,0.00,VWS V14.01,2014-12-17 10:21:00,
2014-12-17 05:22:00,52.9,52.9,30.08,West,267,0.0,0.0,100,0.00,,---,0.00,VWS V14.01,2014-12-17 10:22:00,
2014-12-17 05:23:00,52.9,52.9,30.08,West,267,0.0,0.0,100,0.00,,---,0.00,VWS V14.01,2014-12-17 10:23:00,
2014-12-17 05:24:00,52.9,52.9,30.08,West,267,0.0,0.0,100,0.00,,---,0.00,VWS V14.01,2014-12-17 10:24:00,
2014-12-17 05:25:00,53.1,53.1,30.08,West,267,0.0,0.0,100,0.00,,---,0.00,VWS V14.01,2014-12-17 10:25:00,
2014-12-17 05:26:00,52.8,52.8,30.08,West,267,0.0,0.0,100,0.00,,---,0.00,VWS V14.01,2014-12-17 10:26:00,
2014-12-17 05:27:00,52.8,52.8,30.08,West,267,0.0,0.0,100,0.00,,---,0.00,VWS V14.01,2014-12-17 10:27:00,
2014-12-17 05:28:00,52.8,52.8,30.08,West,267,0.0,0.0,100,0.00,,---,0.00,VWS V14.01,2014-12-17 10:28:00,
2014-12-17 05:29:00,52.8,52.8,30.08,West,267,0.0,0.0,100,0.00,,---,0.00,VWS V14.01,2014-12-17 10:29:00,
2014-12-17 05:30:00,52.9,52.9,30.08,West,267,0.0,0.0,100,0.00,,---,0.00,VWS V14.01,2014-12-17 10:30:00,
2014-12-17 05:31:00,52.6,52.6,30.08,West,267,0.0,0.0,100,0.00,,---,0.00,VWS V14.01,2014-12-17 10:31:00,
2014-12-17 05:32:00,52.6,52.6,30.08,West,267,0.0,0.0,100,0.00,,---,0.00,VWS V14.01,2014-12-17 10:32:00,
2014-12-17 05:33:00,52.6,52.6,30.08,West,267,0.0,0.0,100,0.00,,---,0.00,VWS V14.01,2014-12-17 10:33:00,
2014-12-17 05:34:00,52.6,52.6,30.08,West,267,0.0,0.0,100,0.00,,---,0.00,VWS V14.01,2014-12-17 10:34:00,
2014-12-17 05:35:00,52.8,52.8,30.08,West,267,0.0,0.0,100,0.00,,---,0.00,VWS V14.01,2014-12-17 10:35:00,
2014-12-17 05:36:00,52.5,52.5,30.08,West,267,0.0,0.0,100,0.00,,---,0.00,VWS V14.01,2014-12-17 10:36:00,
2014-12-17 05:37:00,52.5,52.5,30.08,West,267,0.0,0.0,100,0.00,,---,0.00,VWS V14.01,2014-12-17 10:37:00,
2014-12-17 05:38:00,52.5,52.5,30.08,West,267,0.0,0.0,100,0.00,,---,0.00,VWS V14.01,2014-12-17 10:38:00,
2014-12-17 05:39:00,52.5,52.5,30.08,West,267,0.0,0.0,100,0.00,,---,0.00,VWS V14.01,2014-12-17 10:39:00,
2014-12-17 05:40:00,52.6,52.6,30.08,West,267,0.0,0.0,100,0.00,,---,0.00,VWS V14.01,2014-12-17 10:40:00,
2014-12-17 05:41:00,52.3,52.3,30.08,West,267,0.0,0.0,100,0.00,,---,0.00,VWS V14.01,2014-12-17 10:41:00,
2014-12-17 05:42:00,52.3,52.3,30.08,West,267,0.0,0.0,100,0.00,,---,0.00,VWS V14.01,2014-12-17 10:42:00,
2014-12-17 05:43:00,52.3,52.3,30.08,West,267,0.0,0.0,100,0.00,,---,0.00,VWS V14.01,2014-12-17 10:43:00,
2014-12-17 05:44:00,52.5,52.5,30.08,West,267,0.0,0.0,100,0.00,,---,0.00,VWS V14.01,2014-12-17 10:44:00,
2014-12-17 05:45:00,52.5,52.5,30.08,West,267,0.0,0.0,100,0.00,,---,0.00,VWS V14.01,2014-12-17 10:45:00,
2014-12-17 05:46:00,52.5,52.5,30.08,West,267,0.0,0.0,100,0.00,,---,0.00,VWS V14.01,2014-12-17 10:46:00,
2014-12-17 05:47:00,52.5,52.5,30.08,West,267,0.0,0.0,100,0.00,,---,0.00,VWS V14.01,2014-12-17 10:47:00,
2014-12-17 05:48:00,52.3,52.3,30.08,West,267,0.0,0.0,100,0.00,,---,0.00,VWS V14.01,2014-12-17 10:48:00,
2014-12-17 05:49:00,52.5,52.5,30.08,West,267,0.0,0.0,100,0.00,,---,0.00,VWS V14.01,2014-12-17 10:49:00,
2014-12-17 05:50:00,52.5,52.5,30.08,West,267,0.0,0.0,100,0.00,,---,0.00,VWS V14.01,2014-12-17 10:50:00,
2014-12-17 05:51:00,52.5,52.5,30.08,West,267,0.0,0.0,100,0.00,,---,0.00,VWS V14.01,2014-12-17 10:51:00,
2014-12-17 05:52:00,52.5,52.5,30.08,West,267,0.0,0.0,100,0.00,,---,0.00,VWS V14.01,2014-12-17 10:52:00,
2014-12-17 05:53:00,52.5,52.5,30.08,West,267,0.0,0.0,100,0.00,,---,0.00,VWS V14.01,2014-12-17 10:53:00,
2014-12-17 05:54:00,52.5,52.5,30.08,West,267,0.0,0.0,100,0.00,,---,0.00,VWS V14.01,2014-12-17 10:54:00,
2014-12-17 05:55:00,52.5,52.5,30.08,West,267,0.0,0.0,100,0.00,,---,0.00,VWS V14.01,2014-12-17 10:55:00,
2014-12-17 05:56:00,52.5,52.5,30.08,West,267,0.0,0.0,100,0.00,,---,0.00,VWS V14.01,2014-12-17 10:56:00,
2014-12-17 05:57:00,52.5,52.5,30.08,West,267,0.0,0.0,100,0.00,,---,0.00,VWS V14.01,2014-12-17 10:57:00,
2014-12-17 05:58:00,52.5,52.5,30.08,West,267,0.0,0.0,100,0.00,,---,0.00,VWS V14.01,2014-12-17 10:58:00,
2014-12-17 05:59:00,52.3,52.3,30.09,West,267,0.0,0.0,100,0.00,,---,0.00,VWS V14.01,2014-12-17 10:59:00,
2014-12-17 06:00:00,52.3,52.3,30.09,West,267,0.0,0.0,100,0.00,,---,0.00,VWS V14.01,2014-12-17 11:00:00,
2014-12-17 06:01:00,52.3,52.3,30.09,West,267,0.0,0.0,100,0.00,,---,0.00,VWS V14.01,2014-12-17 11:01:00,
2014-12-17 06:02:00,52.5,52.5,30.08,West,267,0.0,0.0,100,0.00,,---,0.00,VWS V14.01,2014-12-17 11:02:00,
2014-12-17 06:03:00,52.3,52.3,30.09,West,267,0.0,0.0,100,0.00,,---,0.00,VWS V14.01,2014-12-17 11:03:00,
2014-12-17 06:04:00,52.2,52.2,30.09,West,267,0.0,0.0,100,0.00,,---,0.00,VWS V14.01,2014-12-17 11:04:00,
2014-12-17 06:05:00,52.2,52.2,30.09,West,267,0.0,0.0,100,0.00,,---,0.00,VWS V14.01,2014-12-17 11:05:00,
2014-12-17 06:06:00,52.2,52.2,30.09,West,267,0.0,0.0,100,0.00,,---,0.00,VWS V14.01,2014-12-17 11:06:00,
2014-12-17 06:07:00,52.5,52.5,30.08,West,267,0.0,0.0,100,0.00,,---,0.00,VWS V14.01,2014-12-17 11:07:00,
2014-12-17 06:08:00,52.0,52.0,30.09,West,267,0.0,0.0,100,0.00,,---,0.00,VWS V14.01,2014-12-17 11:08:00,
2014-12-17 06:09:00,52.0,52.0,30.09,West,267,0.0,0.0,100,0.00,,---,0.00,VWS V14.01,2014-12-17 11:09:00,
2014-12-17 06:10:00,52.0,52.0,30.09,West,267,0.0,0.0,100,0.00,,---,0.00,VWS V14.01,2014-12-17 11:10:00,
2014-12-17 06:11:00,52.0,52.0,30.09,West,267,0.0,0.0,100,0.00,,---,0.00,VWS V14.01,2014-12-17 11:11:00,
2014-12-17 06:12:00,52.3,52.3,30.09,West,267,0.0,0.0,100,0.00,,---,0.00,VWS V14.01,2014-12-17 11:12:00,
2014-12-17 06:13:00,52.0,52.0,30.09,West,267,0.0,0.0,100,0.00,,---,0.00,VWS V14.01,2014-12-17 11:13:00,
2014-12-17 06:14:00,51.9,51.9,30.09,West,267,0.0,0.0,100,0.00,,---,0.00,VWS V14.01,2014-12-17 11:14:00,
2014-12-17 06:15:00,51.9,51.9,30.09,West,267,0.0,0.0,100,0.00,,---,0.00,VWS V14.01,2014-12-17 11:15:00,
2014-12-17 06:16:00,51.9,51.9,30.09,West,267,0.0,0.0,100,0.00,,---,0.00,VWS V14.01,2014-12-17 11:16:00,
2014-12-17 06:17:00,52.2,52.2,30.09,West,267,0.0,0.0,100,0.00,,---,0.00,VWS V14.01,2014-12-17 11:17:00,
2014-12-17 06:18:00,51.9,51.9,30.09,West,267,0.0,0.0,100,0.00,,---,0.00,VWS V14.01,2014-12-17 11:18:00,
2014-12-17 06:19:00,52.0,52.0,30.09,West,267,0.0,0.0,100,0.00,,---,0.00,VWS V14.01,2014-12-17 11:19:00,
2014-12-17 06:20:00,52.0,52.0,30.09,West,267,0.0,0.0,100,0.00,,---,0.00,VWS V14.01,2014-12-17 11:20:00,
2014-12-17 06:21:00,52.0,52.0,30.09,West,267,0.0,0.0,100,0.00,,---,0.00,VWS V14.01,2014-12-17 11:21:00,
2014-12-17 06:22:00,52.0,52.0,30.09,West,267,0.0,0.0,100,0.00,,---,0.00,VWS V14.01,2014-12-17 11:22:00,
2014-12-17 06:23:00,52.0,52.0,30.09,West,267,0.0,0.0,100,0.00,,---,0.00,VWS V14.01,2014-12-17 11:23:00,
2014-12-17 06:24:00,52.0,52.0,30.09,West,267,0.0,0.0,100,0.00,,---,0.00,VWS V14.01,2014-12-17 11:24:00,
2014-12-17 06:25:00,52.0,52.0,30.09,West,267,0.0,0.0,100,0.00,,---,0.00,VWS V14.01,2014-12-17 11:25:00,
2014-12-17 06:26:00,52.0,52.0,30.09,West,267,0.0,0.0,100,0.00,,---,0.00,VWS V14.01,2014-12-17 11:26:00,
2014-12-17 06:27:00,51.9,51.9,30.09,West,267,0.0,0.0,100,0.00,,---,0.00,VWS V14.01,2014-12-17 11:27:00,
2014-12-17 06:28:00,52.0,52.0,30.09,West,267,0.0,0.0,100,0.00,,---,0.00,VWS V14.01,2014-12-17 11:28:00,
2014-12-17 06:29:00,52.0,52.0,30.09,West,267,0.0,0.0,100,0.00,,---,0.00,VWS V14.01,2014-12-17 11:29:00,
2014-12-17 06:30:00,51.9,51.9,30.09,West,267,0.0,0.0,100,0.00,,---,0.00,VWS V14.01,2014-12-17 11:30:00,
2014-12-17 06:31:00,51.9,51.9,30.09,West,267,0.0,0.0,100,0.00,,---,0.00,VWS V14.01,2014-12-17 11:31:00,
2014-12-17 06:32:00,52.0,52.0,30.09,West,267,0.0,0.0,100,0.00,,---,0.00,VWS V14.01,2014-12-17 11:32:00,
2014-12-17 06:33:00,51.9,51.9,30.09,West,267,0.0,0.0,100,0.00,,---,0.00,VWS V14.01,2014-12-17 11:33:00,
2014-12-17 06:34:00,51.9,51.9,30.09,West,267,0.0,0.0,100,0.00,,---,0.00,VWS V14.01,2014-12-17 11:34:00,
2014-12-17 06:35:00,51.9,51.9,30.09,West,267,0.0,0.0,100,0.00,,---,0.00,VWS V14.01,2014-12-17 11:35:00,
2014-12-17 06:36:00,51.9,51.9,30.09,West,267,0.0,0.0,100,0.00,,---,0.00,VWS V14.01,2014-12-17 11:36:00,
2014-12-17 06:37:00,52.0,52.0,30.09,West,267,0.0,0.0,100,0.00,,---,0.00,VWS V14.01,2014-12-17 11:37:00,
2014-12-17 06:38:00,51.9,51.9,30.09,West,267,0.0,0.0,100,0.00,,---,0.00,VWS V14.01,2014-12-17 11:38:00,
2014-12-17 06:39:00,51.9,51.9,30.09,West,267,0.0,0.0,100,0.00,,---,0.00,VWS V14.01,2014-12-17 11:39:00,
2014-12-17 06:40:00,51.9,51.9,30.09,West,267,0.0,0.0,100,0.00,,---,0.00,VWS V14.01,2014-12-17 11:40:00,
2014-12-17 06:41:00,51.9,51.9,30.09,West,267,0.0,0.0,100,0.00,,---,0.00,VWS V14.01,2014-12-17 11:41:00,
2014-12-17 06:42:00,52.0,52.0,30.09,West,267,0.0,0.0,100,0.00,,---,0.00,VWS V14.01,2014-12-17 11:42:00,
2014-12-17 06:43:00,51.9,51.9,30.09,West,267,0.0,0.0,100,0.00,,---,0.00,VWS V14.01,2014-12-17 11:43:00,
2014-12-17 06:44:00,52.0,52.0,30.09,West,267,0.0,0.0,100,0.00,,---,0.00,VWS V14.01,2014-12-17 11:44:00,
2014-12-17 06:45:00,52.0,52.0,30.10,West,267,0.0,0.0,100,0.00,,---,0.00,VWS V14.01,2014-12-17 11:45:00,
2014-12-17 06:46:00,52.0,52.0,30.10,West,267,0.0,0.0,100,0.00,,---,0.00,VWS V14.01,2014-12-17 11:46:00,
2014-12-17 06:47:00,52.0,52.0,30.10,West,267,0.0,0.0,100,0.00,,---,0.00,VWS V14.01,2014-12-17 11:47:00,
2014-12-17 06:48:00,52.0,52.0,30.10,West,267,0.0,0.0,100,0.00,,---,0.00,VWS V14.01,2014-12-17 11:48:00,
2014-12-17 06:49:00,52.0,52.0,30.10,West,267,0.0,0.0,100,0.00,,---,0.00,VWS V14.01,2014-12-17 11:49:00,
2014-12-17 06:50:00,52.0,52.0,30.10,West,267,0.0,0.0,100,0.00,,---,0.00,VWS V14.01,2014-12-17 11:50:00,
2014-12-17 06:51:00,52.0,52.0,30.10,West,267,0.0,0.0,100,0.00,,---,0.00,VWS V14.01,2014-12-17 11:51:00,
2014-12-17 06:52:00,52.0,52.0,30.10,West,267,0.0,0.0,100,0.00,,---,0.00,VWS V14.01,2014-12-17 11:52:00,
2014-12-17 06:53:00,52.0,52.0,30.10,West,267,0.0,0.0,100,0.00,,---,0.00,VWS V14.01,2014-12-17 11:53:00,
2014-12-17 06:54:00,52.0,52.0,30.10,West,267,0.0,0.0,100,0.00,,---,0.00,VWS V14.01,2014-12-17 11:54:00,
2014-12-17 06:55:00,52.0,52.0,30.10,West,267,0.0,0.0,100,0.00,,---,0.00,VWS V14.01,2014-12-17 11:55:00,
2014-12-17 06:56:00,52.0,52.0,30.10,West,267,0.0,0.0,100,0.00,,---,0.00,VWS V14.01,2014-12-17 11:56:00,
2014-12-17 06:57:00,52.2,52.2,30.10,West,267,0.0,0.0,100,0.00,,---,0.00,VWS V14.01,2014-12-17 11:57:00,
2014-12-17 06:58:00,52.2,52.2,30.10,West,267,0.0,0.0,100,0.00,,---,0.00,VWS V14.01,2014-12-17 11:58:00,
2014-12-17 06:59:00,52.2,52.2,30.10,West,267,0.0,0.0,100,0.00,,---,0.00,VWS V14.01,2014-12-17 11:59:00,
2014-12-17 07:00:00,52.2,52.2,30.10,West,267,0.0,0.0,100,0.00,,---,0.00,VWS V14.01,2014-12-17 12:00:00,
2014-12-17 07:01:00,52.2,52.2,30.10,West,267,0.0,0.0,100,0.00,,---,0.00,VWS V14.01,2014-12-17 12:01:00,
2014-12-17 07:02:00,52.0,52.0,30.10,West,267,0.0,0.0,100,0.00,,---,0.00,VWS V14.01,2014-12-17 12:02:00,
2014-12-17 07:03:00,52.2,52.2,30.10,West,267,0.0,0.0,100,0.00,,---,0.00,VWS V14.01,2014-12-17 12:03:00,
2014-12-17 07:04:00,52.2,52.2,30.10,West,267,0.0,0.0,100,0.00,,---,0.00,VWS V14.01,2014-12-17 12:04:00,
2014-12-17 07:05:00,52.2,52.2,30.10,West,267,0.0,0.0,100,0.00,,---,0.00,VWS V14.01,2014-12-17 12:05:00,
2014-12-17 07:06:00,52.2,52.2,30.10,West,267,0.0,0.0,100,0.00,,---,0.00,VWS V14.01,2014-12-17 12:06:00,
2014-12-17 07:07:00,52.2,52.2,30.10,West,267,0.0,0.0,100,0.00,,---,0.00,VWS V14.01,2014-12-17 12:07:00,
2014-12-17 07:08:00,52.2,52.2,30.10,West,267,0.0,0.0,100,0.00,,---,0.00,VWS V14.01,2014-12-17 12:08:00,
2014-12-17 07:09:00,52.2,52.2,30.10,West,267,0.0,0.0,100,0.00,,---,0.00,VWS V14.01,2014-12-17 12:09:00,
2014-12-17 07:10:00,52.2,52.2,30.10,West,267,0.0,0.0,100,0.00,,---,0.00,VWS V14.01,2014-12-17 12:10:00,
2014-12-17 07:11:00,52.2,52.2,30.10,West,267,0.0,0.0,100,0.00,,---,0.00,VWS V14.01,2014-12-17 12:11:00,
2014-12-17 07:12:00,52.2,52.2,30.10,West,267,0.0,0.0,100,0.00,,---,0.00,VWS V14.01,2014-12-17 12:12:00,
2014-12-17 07:13:00,52.3,52.3,30.10,West,267,0.0,0.0,100,0.00,,---,0.00,VWS V14.01,2014-12-17 12:13:00,
2014-12-17 07:14:00,52.3,52.3,30.11,West,267,0.0,0.0,100,0.00,,---,0.00,VWS V14.01,2014-12-17 12:14:00,
2014-12-17 07:15:00,52.2,52.2,30.11,West,267,0.0,0.0,100,0.00,,---,0.00,VWS V14.01,2014-12-17 12:15:00,
2014-12-17 07:16:00,52.2,52.2,30.11,West,267,0.0,0.0,100,0.00,,---,0.00,VWS V14.01,2014-12-17 12:16:00,
2014-12-17 07:17:00,52.2,52.2,30.10,West,267,0.0,0.0,100,0.00,,---,0.00,VWS V14.01,2014-12-17 12:17:00,
2014-12-17 07:18:00,52.2,52.2,30.11,West,267,0.0,0.0,100,0.00,,---,0.00,VWS V14.01,2014-12-17 12:18:00,
2014-12-17 07:19:00,52.2,52.2,30.11,West,267,0.0,0.0,100,0.00,,---,0.00,VWS V14.01,2014-12-17 12:19:00,
2014-12-17 07:20:00,52.2,52.2,30.11,West,267,0.0,0.0,100,0.00,,---,0.00,VWS V14.01,2014-12-17 12:20:00,
2014-12-17 07:21:00,52.2,52.2,30.11,West,267,0.0,0.0,100,0.00,,---,0.00,VWS V14.01,2014-12-17 12:21:00,
2014-12-17 07:22:00,52.3,52.3,30.10,West,267,0.0,0.0,100,0.00,,---,0.00,VWS V14.01,2014-12-17 12:22:00,
2014-12-17 07:23:00,52.2,52.2,30.11,West,267,0.0,0.0,100,0.00,,---,0.00,VWS V14.01,2014-12-17 12:23:00,
2014-12-17 07:24:00,52.2,52.2,30.11,West,267,0.0,0.0,100,0.00,,---,0.00,VWS V14.01,2014-12-17 12:24:00,
2014-12-17 07:25:00,52.2,52.2,30.11,West,267,0.0,0.0,100,0.00,,---,0.00,VWS V14.01,2014-12-17 12:25:00,
2014-12-17 07:26:00,52.2,52.2,30.11,West,267,0.0,0.0,100,0.00,,---,0.00,VWS V14.01,2014-12-17 12:26:00,
2014-12-17 07:27:00,52.2,52.2,30.11,West,267,0.0,0.0,100,0.00,,---,0.00,VWS V14.01,2014-12-17 12:27:00,
2014-12-17 07:28:00,52.2,52.2,30.11,West,267,0.0,0.0,100,0.00,,---,0.00,VWS V14.01,2014-12-17 12:28:00,
2014-12-17 07:29:00,52.2,52.2,30.11,West,267,0.0,0.0,100,0.00,,---,0.00,VWS V14.01,2014-12-17 12:29:00,
2014-12-17 07:30:00,52.2,52.2,30.11,West,267,0.0,0.0,100,0.00,,---,0.00,VWS V14.01,2014-12-17 12:30:00,
2014-12-17 07:31:00,52.2,52.2,30.11,West,267,0.0,0.0,100,0.00,,---,0.00,VWS V14.01,2014-12-17 12:31:00,
2014-12-17 07:32:00,52.2,52.2,30.11,West,267,0.0,0.0,100,0.00,,---,0.00,VWS V14.01,2014-12-17 12:32:00,
2014-12-17 07:33:00,52.3,52.3,30.11,West,267,0.0,0.0,100,0.00,,---,0.00,VWS V14.01,2014-12-17 12:33:00,
2014-12-17 07:34:00,52.3,52.3,30.11,West,267,0.0,0.0,100,0.00,,---,0.00,VWS V14.01,2014-12-17 12:34:00,
2014-12-17 07:35:00,52.3,52.3,30.11,West,267,0.0,0.0,100,0.00,,---,0.00,VWS V14.01,2014-12-17 12:35:00,
2014-12-17 07:36:00,52.3,52.3,30.11,West,267,0.0,0.0,100,0.00,,---,0.00,VWS V14.01,2014-12-17 12:36:00,
2014-12-17 07:37:00,52.2,52.2,30.11,West,267,0.0,0.0,100,0.00,,---,0.00,VWS V14.01,2014-12-17 12:37:00,
2014-12-17 07:38:00,52.5,52.5,30.11,West,267,0.0,0.0,100,0.00,,---,0.00,VWS V14.01,2014-12-17 12:38:00,
2014-12-17 07:39:00,52.5,52.5,30.11,West,267,0.0,0.0,100,0.00,,---,0.00,VWS V14.01,2014-12-17 12:39:00,
2014-12-17 07:40:00,52.5,52.5,30.11,West,267,0.0,0.0,100,0.00,,---,0.00,VWS V14.01,2014-12-17 12:40:00,
2014-12-17 07:41:00,52.5,52.5,30.11,West,267,0.0,0.0,100,0.00,,---,0.00,VWS V14.01,2014-12-17 12:41:00,
2014-12-17 07:42:00,52.6,52.6,30.11,West,267,0.0,0.0,100,0.00,,---,0.00,VWS V14.01,2014-12-17 12:42:00,
2014-12-17 07:43:00,52.6,52.6,30.11,West,267,0.0,0.0,100,0.00,,---,0.00,VWS V14.01,2014-12-17 12:43:00,
2014-12-17 07:44:00,52.6,52.6,30.11,West,267,0.0,0.0,100,0.00,,---,0.00,VWS V14.01,2014-12-17 12:44:00,
2014-12-17 07:45:00,52.6,52.6,30.11,West,267,0.0,0.0,100,0.00,,---,0.00,VWS V14.01,2014-12-17 12:45:00,
2014-12-17 07:46:00,52.8,52.8,30.11,West,267,0.0,0.0,100,0.00,,---,0.00,VWS V14.01,2014-12-17 12:46:00,
2014-12-17 07:47:00,52.8,52.8,30.11,West,267,0.0,0.0,100,0.00,,---,0.00,VWS V14.01,2014-12-17 12:47:00,
2014-12-17 07:48:00,52.9,52.9,30.11,West,267,0.0,0.0,100,0.00,,---,0.00,VWS V14.01,2014-12-17 12:48:00,
2014-12-17 07:49:00,53.1,53.1,30.11,West,267,0.0,0.0,100,0.00,,---,0.00,VWS V14.01,2014-12-17 12:49:00,
2014-12-17 07:50:00,53.1,53.1,30.11,West,267,0.0,0.0,100,0.00,,---,0.00,VWS V14.01,2014-12-17 12:50:00,
2014-12-17 07:51:00,53.2,53.2,30.11,West,267,0.0,0.0,100,0.00,,---,0.00,VWS V14.01,2014-12-17 12:51:00,
2014-12-17 07:52:00,53.3,53.3,30.11,West,267,0.0,0.0,100,0.00,,---,0.00,VWS V14.01,2014-12-17 12:52:00,
2014-12-17 07:53:00,53.5,53.5,30.11,West,267,0.0,0.0,100,0.00,,---,0.00,VWS V14.01,2014-12-17 12:53:00,
2014-12-17 07:54:00,53.5,53.5,30.11,West,267,0.0,0.0,100,0.00,,---,0.00,VWS V14.01,2014-12-17 12:54:00,
2014-12-17 07:55:00,53.6,53.6,30.11,West,267,0.0,0.0,100,0.00,,---,0.00,VWS V14.01,2014-12-17 12:55:00,
2014-12-17 07:56:00,52.8,52.8,30.11,West,267,0.0,0.0,100,0.00,,---,0.00,VWS V14.01,2014-12-17 12:56:00,
2014-12-17 07:57:00,53.9,53.9,30.11,West,267,0.0,0.0,100,0.00,,---,0.00,VWS V14.01,2014-12-17 12:57:00,
2014-12-17 07:58:00,54.1,54.1,30.11,West,267,0.0,0.0,100,0.00,,---,0.00,VWS V14.01,2014-12-17 12:58:00,
2014-12-17 07:59:00,54.2,54.2,30.11,West,267,0.0,0.0,100,0.00,,---,0.00,VWS V14.01,2014-12-17 12:59:00,
2014-12-17 08:00:00,54.2,54.2,30.11,West,267,0.0,0.0,100,0.00,,---,0.00,VWS V14.01,2014-12-17 13:00:00,
2014-12-17 08:01:00,53.2,53.2,30.11,West,267,0.0,0.0,100,0.00,,---,0.00,VWS V14.01,2014-12-17 13:01:00,
2014-12-17 08:02:00,54.5,54.5,30.11,West,267,0.0,0.0,100,0.00,,---,0.00,VWS V14.01,2014-12-17 13:02:00,
2014-12-17 08:03:00,54.5,54.5,30.11,West,267,0.0,0.0,100,0.00,,---,0.00,VWS V14.01,2014-12-17 13:03:00,
2014-12-17 08:04:00,54.7,54.7,30.11,West,267,0.0,0.0,100,0.00,,---,0.00,VWS V14.01,2014-12-17 13:04:00,
2014-12-17 08:05:00,54.8,54.8,30.11,West,267,0.0,0.0,100,0.00,,---,0.00,VWS V14.01,2014-12-17 13:05:00,
2014-12-17 08:06:00,53.8,53.8,30.11,West,267,0.0,0.0,100,0.00,,---,0.00,VWS V14.01,2014-12-17 13:06:00,
2014-12-17 08:07:00,55.0,55.0,30.11,West,267,0.0,0.0,100,0.00,,---,0.00,VWS V14.01,2014-12-17 13:07:00,
2014-12-17 08:08:00,55.0,55.0,30.11,West,267,0.0,0.0,100,0.00,,---,0.00,VWS V14.01,2014-12-17 13:08:00,
2014-12-17 08:09:00,55.1,55.1,30.11,West,267,0.0,0.0,100,0.00,,---,0.00,VWS V14.01,2014-12-17 13:09:00,
2014-12-17 08:10:00,55.1,55.1,30.11,West,267,0.0,0.0,100,0.00,,---,0.00,VWS V14.01,2014-12-17 13:10:00,
2014-12-17 08:11:00,54.5,54.5,30.11,West,267,0.0,0.0,100,0.00,,---,0.00,VWS V14.01,2014-12-17 13:11:00,
2014-12-17 08:12:00,55.4,55.4,30.11,West,267,0.0,0.0,100,0.00,,---,0.00,VWS V14.01,2014-12-17 13:12:00,
2014-12-17 08:13:00,55.4,55.4,30.11,West,267,0.0,0.0,100,0.00,,---,0.00,VWS V14.01,2014-12-17 13:13:00,
2014-12-17 08:14:00,55.6,55.6,30.11,West,267,0.0,0.0,100,0.00,,---,0.00,VWS V14.01,2014-12-17 13:14:00,
2014-12-17 08:15:00,55.7,55.7,30.11,West,267,0.0,0.0,100,0.00,,---,0.00,VWS V14.01,2014-12-17 13:15:00,
2014-12-17 08:16:00,54.8,54.8,30.11,West,267,0.0,0.0,100,0.00,,---,0.00,VWS V14.01,2014-12-17 13:16:00,
2014-12-17 08:17:00,56.0,56.0,30.11,West,267,0.0,0.0,100,0.00,,---,0.00,VWS V14.01,2014-12-17 13:17:00,
2014-12-17 08:18:00,56.3,56.3,30.11,West,267,0.0,0.0,100,0.00,,---,0.00,VWS V14.01,2014-12-17 13:18:00,
2014-12-17 08:19:00,56.6,56.6,30.11,West,267,0.0,0.0,100,0.00,,---,0.00,VWS V14.01,2014-12-17 13:19:00,
2014-12-17 08:20:00,56.7,56.7,30.11,West,267,0.0,0.0,100,0.00,,---,0.00,VWS V14.01,2014-12-17 13:20:00,
2014-12-17 08:21:00,55.3,55.3,30.11,West,267,0.0,0.0,100,0.00,,---,0.00,VWS V14.01,2014-12-17 13:21:00,
2014-12-17 08:22:00,57.2,57.2,30.11,West,267,0.0,0.0,100,0.00,,---,0.00,VWS V14.01,2014-12-17 13:22:00,
2014-12-17 08:23:00,57.5,57.5,30.11,West,267,0.0,0.0,100,0.00,,---,0.00,VWS V14.01,2014-12-17 13:23:00,
2014-12-17 08:24:00,57.6,57.6,30.11,West,267,0.0,1.0,100,0.00,,---,0.00,VWS V14.01,2014-12-17 13:24:00,
2014-12-17 08:25:00,57.8,57.8,30.11,West,267,0.0,1.0,100,0.00,,---,0.00,VWS V14.01,2014-12-17 13:25:00,
2014-12-17 08:26:00,56.0,56.0,30.11,West,267,0.0,0.0,100,0.00,,---,0.00,VWS V14.01,2014-12-17 13:26:00,
2014-12-17 08:27:00,58.1,58.1,30.11,West,267,0.0,1.0,100,0.00,,---,0.00,VWS V14.01,2014-12-17 13:27:00,
2014-12-17 08:28:00,58.1,58.1,30.11,West,267,0.0,1.0,100,0.00,,---,0.00,VWS V14.01,2014-12-17 13:28:00,
2014-12-17 08:29:00,58.3,58.3,30.11,West,267,1.0,1.0,100,0.00,,---,0.00,VWS V14.01,2014-12-17 13:29:00,
2014-12-17 08:30:00,58.4,58.4,30.11,West,267,0.0,1.0,100,0.00,,---,0.00,VWS V14.01,2014-12-17 13:30:00,
2014-12-17 08:31:00,57.0,57.0,30.11,West,267,0.0,0.0,100,0.00,,---,0.00,VWS V14.01,2014-12-17 13:31:00,
2014-12-17 08:32:00,58.7,58.7,30.11,West,267,0.0,0.0,100,0.00,,---,0.00,VWS V14.01,2014-12-17 13:32:00,
2014-12-17 08:33:00,58.9,58.9,30.11,West,267,0.0,0.0,100,0.00,,---,0.00,VWS V14.01,2014-12-17 13:33:00,
2014-12-17 08:34:00,59.0,59.0,30.11,West,267,0.0,0.0,100,0.00,,---,0.00,VWS V14.01,2014-12-17 13:34:00,
2014-12-17 08:35:00,59.2,59.2,30.11,West,267,0.0,0.0,100,0.00,,---,0.00,VWS V14.01,2014-12-17 13:35:00,
2014-12-17 08:36:00,59.3,59.3,30.11,West,267,0.0,0.0,100,0.00,,---,0.00,VWS V14.01,2014-12-17 13:36:00,
2014-12-17 08:37:00,59.5,59.5,30.11,West,267,2.0,2.0,100,0.00,,---,0.00,VWS V14.01,2014-12-17 13:37:00,
2014-12-17 08:38:00,59.6,59.6,30.11,West,267,1.0,2.0,100,0.00,,---,0.00,VWS V14.01,2014-12-17 13:38:00,
2014-12-17 08:39:00,58.4,58.4,30.11,West,267,0.0,1.0,100,0.00,,---,0.00,VWS V14.01,2014-12-17 13:39:00,
2014-12-17 08:40:00,59.9,59.9,30.11,West,267,2.0,2.0,100,0.00,,---,0.00,VWS V14.01,2014-12-17 13:40:00,
2014-12-17 08:41:00,60.1,60.1,30.11,West,267,0.0,2.0,100,0.00,,---,0.00,VWS V14.01,2014-12-17 13:41:00,
2014-12-17 08:42:00,60.2,60.2,30.11,West,267,0.0,2.0,100,0.00,,---,0.00,VWS V14.01,2014-12-17 13:42:00,
2014-12-17 08:43:00,60.4,60.4,30.11,West,267,0.0,2.0,100,0.00,,---,0.00,VWS V14.01,2014-12-17 13:43:00,
2014-12-17 08:44:00,60.7,60.7,30.12,West,267,0.0,2.0,100,0.00,,---,0.00,VWS V14.01,2014-12-17 13:44:00,
2014-12-17 08:45:00,60.9,60.9,30.12,West,267,0.0,2.0,100,0.00,,---,0.00,VWS V14.01,2014-12-17 13:45:00,
2014-12-17 08:46:00,61.0,61.0,30.12,West,267,0.0,2.0,100,0.00,,---,0.00,VWS V14.01,2014-12-17 13:46:00,
2014-12-17 08:47:00,61.2,61.2,30.12,West,267,0.0,2.0,100,0.00,,---,0.00,VWS V14.01,2014-12-17 13:47:00,
2014-12-17 08:48:00,61.3,61.3,30.12,West,267,0.0,2.0,100,0.00,,---,0.00,VWS V14.01,2014-12-17 13:48:00,
2014-12-17 08:49:00,61.5,61.5,30.12,West,267,0.0,2.0,100,0.00,,---,0.00,VWS V14.01,2014-12-17 13:49:00,
2014-12-17 08:50:00,61.5,61.5,30.12,West,267,0.0,2.0,100,0.00,,---,0.00,VWS V14.01,2014-12-17 13:50:00,
2014-12-17 08:51:00,61.6,61.6,30.12,West,267,2.0,2.0,100,0.00,,---,0.00,VWS V14.01,2014-12-17 13:51:00,
2014-12-17 08:52:00,60.4,60.4,30.11,West,267,0.0,2.0,100,0.00,,---,0.00,VWS V14.01,2014-12-17 13:52:00,
2014-12-17 08:53:00,61.8,61.8,30.12,West,267,0.0,2.0,100,0.00,,---,0.00,VWS V14.01,2014-12-17 13:53:00,
2014-12-17 08:54:00,62.0,61.7,30.12,West,267,0.0,2.0,99,0.00,,---,0.00,VWS V14.01,2014-12-17 13:54:00,
2014-12-17 08:55:00,62.0,61.7,30.12,West,267,5.0,5.0,99,0.00,,---,0.00,VWS V14.01,2014-12-17 13:55:00,
2014-12-17 08:56:00,62.1,61.8,30.12,West,267,4.0,5.0,99,0.00,,---,0.00,VWS V14.01,2014-12-17 13:56:00,
2014-12-17 08:57:00,61.3,61.3,30.12,West,267,0.0,2.0,100,0.00,,---,0.00,VWS V14.01,2014-12-17 13:57:00,
2014-12-17 08:58:00,62.4,61.8,30.12,West,267,0.0,5.0,98,0.00,,---,0.00,VWS V14.01,2014-12-17 13:58:00,
2014-12-17 08:59:00,62.6,62.0,30.12,West,267,1.0,5.0,98,0.00,,---,0.00,VWS V14.01,2014-12-17 13:59:00,
2014-12-17 09:00:00,62.7,61.8,30.12,West,267,0.0,1.0,97,0.00,,---,0.00,VWS V14.01,2014-12-17 14:00:00,
2014-12-17 09:01:00,62.9,61.8,30.12,West,267,1.0,1.0,96,0.00,,---,0.00,VWS V14.01,2014-12-17 14:01:00,
2014-12-17 09:02:00,61.8,61.8,30.12,West,267,0.0,2.0,100,0.00,,---,0.00,VWS V14.01,2014-12-17 14:02:00,
2014-12-17 09:03:00,63.2,61.8,30.12,West,267,1.0,2.0,95,0.00,,---,0.00,VWS V14.01,2014-12-17 14:03:00,
2014-12-17 09:04:00,63.4,62.0,30.12,West,267,2.0,3.0,95,0.00,,---,0.00,VWS V14.01,2014-12-17 14:04:00,
2014-12-17 09:05:00,63.5,62.0,30.12,West,267,1.0,3.0,95,0.00,,---,0.00,VWS V14.01,2014-12-17 14:05:00,
2014-12-17 09:06:00,63.7,61.6,30.12,West,267,1.0,3.0,93,0.00,,---,0.00,VWS V14.01,2014-12-17 14:06:00,
2014-12-17 09:07:00,62.4,61.8,30.12,West,267,1.0,5.0,98,0.00,,---,0.00,VWS V14.01,2014-12-17 14:07:00,
2014-12-17 09:08:00,63.9,61.5,30.12,West,267,3.0,4.0,92,0.00,,---,0.00,VWS V14.01,2014-12-17 14:08:00,
2014-12-17 09:09:00,64.0,61.3,30.12,West,267,5.0,5.0,91,0.00,,---,0.00,VWS V14.01,2014-12-17 14:09:00,
2014-12-17 09:10:00,64.2,61.5,30.12,West,267,3.0,5.0,91,0.00,,---,0.00,VWS V14.01,2014-12-17 14:10:00,
2014-12-17 09:11:00,64.3,61.3,30.12,West,267,1.0,5.0,90,0.00,,---,0.00,VWS V14.01,2014-12-17 14:11:00,
2014-12-17 09:12:00,63.1,61.7,30.12,West,267,1.0,2.0,95,0.00,,---,0.00,VWS V14.01,2014-12-17 14:12:00,
2014-12-17 09:13:00,64.7,60.4,30.12,West,267,3.0,5.0,86,0.00,,---,0.00,VWS V14.01,2014-12-17 14:13:00,
2014-12-17 09:14:00,64.8,60.5,30.13,West,267,2.0,5.0,86,0.00,,---,0.00,VWS V14.01,2014-12-17 14:14:00,
2014-12-17 09:15:00,65.0,60.7,30.13,West,267,0.0,5.0,86,0.00,,---,0.00,VWS V14.01,2014-12-17 14:15:00,
2014-12-17 09:16:00,65.2,60.6,30.13,West,267,0.0,5.0,85,0.00,,---,0.00,VWS V14.01,2014-12-17 14:16:00,
2014-12-17 09:17:00,63.9,61.8,30.12,West,267,2.0,4.0,93,0.00,,---,0.00,VWS V14.01,2014-12-17 14:17:00,
2014-12-17 09:18:00,65.5,60.2,30.13,West,267,1.0,5.0,83,0.00,,---,0.00,VWS V14.01,2014-12-17 14:18:00,
2014-12-17 09:19:00,65.6,60.3,30.13,West,267,0.0,5.0,83,0.00,,---,0.00,VWS V14.01,2014-12-17 14:19:00,
2014-12-17 09:20:00,65.8,60.2,30.13,West,267,2.0,5.0,82,0.00,,---,0.00,VWS V14.01,2014-12-17 14:20:00,
2014-12-17 09:21:00,65.8,59.8,30.13,West,267,4.0,5.0,81,0.00,,---,0.00,VWS V14.01,2014-12-17 14:21:00,
2014-12-17 09:22:00,64.7,61.4,30.12,West,267,0.0,5.0,89,0.00,,---,0.00,VWS V14.01,2014-12-17 14:22:00,
2014-12-17 09:23:00,66.1,58.7,30.13,West,267,2.0,5.0,77,0.00,,---,0.00,VWS V14.01,2014-12-17 14:23:00,
2014-12-17 09:24:00,66.3,58.9,30.13,West,267,3.0,5.0,77,0.00,,---,0.00,VWS V14.01,2014-12-17 14:24:00,
2014-12-17 09:25:00,66.4,58.6,30.13,West,267,1.0,5.0,76,0.00,,---,0.00,VWS V14.01,2014-12-17 14:25:00,
2014-12-17 09:26:00,66.6,58.8,30.13,West,267,0.0,5.0,76,0.00,,---,0.00,VWS V14.01,2014-12-17 14:26:00,
2014-12-17 09:27:00,65.3,60.3,30.13,West,267,3.0,5.0,84,0.00,,---,0.00,VWS V14.01,2014-12-17 14:27:00,
2014-12-17 09:28:00,66.9,58.7,30.13,West,267,1.0,5.0,75,0.00,,---,0.00,VWS V14.01,2014-12-17 14:28:00,
2014-12-17 09:29:00,67.1,58.9,30.13,West,267,0.0,5.0,75,0.00,,---,0.00,VWS V14.01,2014-12-17 14:29:00,
2014-12-17 09:30:00,67.3,58.7,30.13,West,267,0.0,5.0,74,0.00,,---,0.00,VWS V14.01,2014-12-17 14:30:00,
2014-12-17 09:31:00,67.4,59.2,30.13,West,267,0.0,0.0,75,0.00,,---,0.00,VWS V14.01,2014-12-17 14:31:00,
2014-12-17 09:32:00,67.4,58.8,30.13,West,267,2.0,2.0,74,0.00,,---,0.00,VWS V14.01,2014-12-17 14:32:00,
2014-12-17 09:33:00,67.6,59.0,30.13,West,267,0.0,2.0,74,0.00,,---,0.00,VWS V14.01,2014-12-17 14:33:00,
2014-12-17 09:34:00,67.8,58.8,30.13,West,267,2.0,2.0,73,0.00,,---,0.00,VWS V14.01,2014-12-17 14:34:00,
2014-12-17 09:35:00,67.8,58.5,30.13,West,267,2.0,2.0,72,0.00,,---,0.00,VWS V14.01,2014-12-17 14:35:00,
2014-12-17 09:36:00,67.9,58.5,30.13,West,267,2.0,2.0,72,0.00,,---,0.00,VWS V14.01,2014-12-17 14:36:00,
2014-12-17 09:37:00,68.1,58.3,30.13,West,267,2.0,3.0,71,0.00,,---,0.00,VWS V14.01,2014-12-17 14:37:00,
2014-12-17 09:38:00,68.1,58.3,30.13,West,267,1.0,3.0,71,0.00,,---,0.00,VWS V14.01,2014-12-17 14:38:00,
2014-12-17 09:39:00,67.3,58.7,30.13,West,267,0.0,5.0,74,0.00,,---,0.00,VWS V14.01,2014-12-17 14:39:00,
2014-12-17 09:40:00,68.4,58.2,30.13,West,267,4.0,4.0,70,0.00,,---,0.00,VWS V14.01,2014-12-17 14:40:00,
2014-12-17 09:41:00,68.6,58.4,30.13,West,267,1.0,4.0,70,0.00,,---,0.00,VWS V14.01,2014-12-17 14:41:00,
2014-12-17 09:42:00,68.6,58.4,30.13,West,267,1.0,4.0,70,0.00,,---,0.00,VWS V14.01,2014-12-17 14:42:00,
2014-12-17 09:43:00,68.8,58.6,30.13,West,267,0.0,4.0,70,0.00,,---,0.00,VWS V14.01,2014-12-17 14:43:00,
2014-12-17 09:44:00,68.9,58.7,30.13,West,267,0.0,4.0,70,0.00,,---,0.00,VWS V14.01,2014-12-17 14:44:00,
2014-12-17 09:45:00,68.9,58.7,30.13,West,267,0.0,4.0,70,0.00,,---,0.00,VWS V14.01,2014-12-17 14:45:00,
2014-12-17 09:46:00,69.1,58.9,30.13,West,267,1.0,4.0,70,0.00,,---,0.00,VWS V14.01,2014-12-17 14:46:00,
2014-12-17 09:47:00,69.3,59.1,30.13,West,267,2.0,4.0,70,0.00,,---,0.00,VWS V14.01,2014-12-17 14:47:00,
2014-12-17 09:48:00,68.3,58.2,30.13,West,267,2.0,3.0,70,0.00,,---,0.00,VWS V14.01,2014-12-17 14:48:00,
2014-12-17 09:49:00,69.4,59.2,30.13,West,267,0.0,4.0,70,0.00,,---,0.00,VWS V14.01,2014-12-17 14:49:00,
2014-12-17 09:50:00,69.6,59.4,30.13,West,267,0.0,4.0,70,0.00,,---,0.00,VWS V14.01,2014-12-17 14:50:00,
2014-12-17 09:51:00,69.8,59.6,30.13,West,267,0.0,4.0,70,0.00,,---,0.00,VWS V14.01,2014-12-17 14:51:00,
2014-12-17 09:52:00,69.9,59.3,30.13,West,267,3.0,4.0,69,0.00,,---,0.00,VWS V14.01,2014-12-17 14:52:00,
2014-12-17 09:53:00,68.8,58.6,30.13,West,267,0.0,4.0,70,0.00,,---,0.00,VWS V14.01,2014-12-17 14:53:00,
2014-12-17 09:54:00,70.1,58.7,30.13,West,267,0.0,4.0,67,0.00,,---,0.00,VWS V14.01,2014-12-17 14:54:00,
2014-12-17 09:55:00,70.3,58.4,30.13,West,267,0.0,4.0,66,0.00,,---,0.00,VWS V14.01,2014-12-17 14:55:00,
2014-12-17 09:56:00,70.3,58.0,30.13,West,267,4.0,4.0,65,0.00,,---,0.00,VWS V14.01,2014-12-17 14:56:00,
2014-12-17 09:57:00,70.4,57.7,30.13,West,267,2.0,4.0,64,0.00,,---,0.00,VWS V14.01,2014-12-17 14:57:00,
2014-12-17 09:58:00,69.4,58.8,30.13,West,267,0.0,4.0,69,0.00,,---,0.00,VWS V14.01,2014-12-17 14:58:00,
2014-12-17 09:59:00,70.6,57.8,30.14,West,267,3.0,4.0,64,0.00,,---,0.00,VWS V14.01,2014-12-17 14:59:00,
2014-12-17 10:00:00,70.6,58.3,30.14,West,267,0.0,4.0,65,0.00,,---,0.00,VWS V14.01,2014-12-17 15:00:00,
2014-12-17 10:01:00,70.8,58.5,30.14,West,267,3.0,3.0,65,0.00,,---,0.00,VWS V14.01,2014-12-17 15:01:00,
2014-12-17 10:02:00,70.8,58.0,30.14,West,267,1.0,3.0,64,0.00,,---,0.00,VWS V14.01,2014-12-17 15:02:00,
2014-12-17 10:03:00,70.1,58.7,30.13,West,267,0.0,4.0,67,0.00,,---,0.00,VWS V14.01,2014-12-17 15:03:00,
2014-12-17 10:04:00,70.9,58.1,30.14,West,267,5.0,5.0,64,0.00,,---,0.00,VWS V14.01,2014-12-17 15:04:00,
2014-12-17 10:05:00,71.1,58.3,30.14,West,267,1.0,5.0,64,0.00,,---,0.00,VWS V14.01,2014-12-17 15:05:00,
2014-12-17 10:06:00,71.1,58.3,30.14,West,267,4.0,5.0,64,0.00,,---,0.00,VWS V14.01,2014-12-17 15:06:00,
2014-12-17 10:07:00,71.3,58.1,30.14,West,267,1.0,5.0,63,0.00,,---,0.00,VWS V14.01,2014-12-17 15:07:00,
2014-12-17 10:08:00,70.4,58.1,30.13,West,267,1.0,4.0,65,0.00,,---,0.00,VWS V14.01,2014-12-17 15:08:00,
2014-12-17 10:09:00,71.5,58.3,30.14,West,267,3.0,5.0,63,0.00,,---,0.00,VWS V14.01,2014-12-17 15:09:00,
2014-12-17 10:10:00,71.5,58.7,30.14,West,267,2.0,5.0,64,0.00,,---,0.00,VWS V14.01,2014-12-17 15:10:00,
2014-12-17 10:11:00,71.6,58.8,30.14,West,267,2.0,5.0,64,0.00,,---,0.00,VWS V14.01,2014-12-17 15:11:00,
2014-12-17 10:12:00,71.6,58.8,30.14,West,267,2.0,5.0,64,0.00,,---,0.00,VWS V14.01,2014-12-17 15:12:00,
2014-12-17 10:13:00,70.9,58.1,30.14,West,267,3.0,4.0,64,0.00,,---,0.00,VWS V14.01,2014-12-17 15:13:00,
2014-12-17 10:14:00,72.0,58.3,30.14,West,267,4.0,5.0,62,0.00,,---,0.00,VWS V14.01,2014-12-17 15:14:00,
2014-12-17 10:15:00,72.0,57.8,30.14,West,267,0.0,5.0,61,0.00,,---,0.00,VWS V14.01,2014-12-17 15:15:00,
2014-12-17 10:16:00,72.1,58.4,30.14,West,267,3.0,5.0,62,0.00,,---,0.00,VWS V14.01,2014-12-17 15:16:00,
2014-12-17 10:17:00,72.1,58.4,30.14,West,267,3.0,5.0,62,0.00,,---,0.00,VWS V14.01,2014-12-17 15:17:00,
2014-12-17 10:18:00,71.5,58.3,30.14,West,267,1.0,5.0,63,0.00,,---,0.00,VWS V14.01,2014-12-17 15:18:00,
2014-12-17 10:19:00,72.3,59.0,30.14,West,267,2.0,5.0,63,0.00,,---,0.00,VWS V14.01,2014-12-17 15:19:00,
2014-12-17 10:20:00,72.5,58.8,30.14,West,267,2.0,5.0,62,0.00,,---,0.00,VWS V14.01,2014-12-17 15:20:00,
2014-12-17 10:21:00,72.5,58.8,30.14,West,267,3.0,5.0,62,0.00,,---,0.00,VWS V14.01,2014-12-17 15:21:00,
2014-12-17 10:22:00,72.7,58.0,30.14,West,267,4.0,5.0,60,0.00,,---,0.00,VWS V14.01,2014-12-17 15:22:00,
2014-12-17 10:23:00,72.7,58.0,30.14,West,267,3.0,5.0,60,0.00,,---,0.00,VWS V14.01,2014-12-17 15:23:00,
2014-12-17 10:24:00,72.7,58.0,30.14,West,267,4.0,5.0,60,0.00,,---,0.00,VWS V14.01,2014-12-17 15:24:00,
2014-12-17 10:25:00,72.8,57.7,30.14,West,267,2.0,5.0,59,0.00,,---,0.00,VWS V14.01,2014-12-17 15:25:00,
2014-12-17 10:26:00,72.8,58.1,30.14,West,267,2.0,5.0,60,0.00,,---,0.00,VWS V14.01,2014-12-17 15:26:00,
2014-12-17 10:27:00,73.0,58.3,30.14,West,267,1.0,5.0,60,0.00,,---,0.00,VWS V14.01,2014-12-17 15:27:00,
2014-12-17 10:28:00,73.0,56.9,30.14,West,267,4.0,6.0,57,0.00,,---,0.00,VWS V14.01,2014-12-17 15:28:00,
2014-12-17 10:29:00,73.0,56.9,30.14,West,267,3.0,6.0,57,0.00,,---,0.00,VWS V14.01,2014-12-17 15:29:00,
2014-12-17 10:30:00,73.0,57.8,30.14,West,267,2.0,5.0,59,0.00,,---,0.00,VWS V14.01,2014-12-17 15:30:00,
2014-12-17 10:31:00,73.2,58.0,30.14,West,267,3.0,5.0,59,0.00,,---,0.00,VWS V14.01,2014-12-17 15:31:00,
2014-12-17 10:32:00,73.2,58.0,30.14,West,267,3.0,5.0,59,0.00,,---,0.00,VWS V14.01,2014-12-17 15:32:00,
2014-12-17 10:33:00,73.3,58.6,30.14,West,267,3.0,5.0,60,0.00,,---,0.00,VWS V14.01,2014-12-17 15:33:00,
2014-12-17 10:34:00,72.8,57.7,30.14,West,267,2.0,5.0,59,0.00,,---,0.00,VWS V14.01,2014-12-17 15:34:00,
2014-12-17 10:35:00,73.3,56.7,30.14,West,267,3.0,5.0,56,0.00,,---,0.00,VWS V14.01,2014-12-17 15:35:00,
2014-12-17 10:36:00,73.5,57.3,30.14,West,268,1.0,5.0,57,0.00,,---,0.00,VWS V14.01,2014-12-17 15:36:00,
2014-12-17 10:37:00,73.5,57.8,30.14,West,268,3.0,5.0,58,0.00,,---,0.00,VWS V14.01,2014-12-17 15:37:00,
2014-12-17 10:38:00,73.5,57.8,30.14,West,268,4.0,6.0,58,0.00,,---,0.00,VWS V14.01,2014-12-17 15:38:00,
2014-12-17 10:39:00,73.0,56.9,30.14,West,267,5.0,6.0,57,0.00,,---,0.00,VWS V14.01,2014-12-17 15:39:00,
2014-12-17 10:40:00,73.7,57.5,30.14,West,268,2.0,6.0,57,0.00,,---,0.00,VWS V14.01,2014-12-17 15:40:00,
2014-12-17 10:41:00,73.7,58.0,30.14,West,268,5.0,6.0,58,0.00,,---,0.00,VWS V14.01,2014-12-17 15:41:00,
2014-12-17 10:42:00,73.7,57.5,30.14,West,268,4.0,6.0,57,0.00,,---,0.00,VWS V14.01,2014-12-17 15:42:00,
2014-12-17 10:43:00,73.9,57.7,30.14,West,268,4.0,6.0,57,0.00,,---,0.00,VWS V14.01,2014-12-17 15:43:00,
2014-12-17 10:44:00,73.3,57.7,30.14,West,267,4.0,5.0,58,0.00,,---,0.00,VWS V14.01,2014-12-17 15:44:00,
2014-12-17 10:45:00,74.0,57.3,30.14,West,268,3.0,6.0,56,0.00,,---,0.00,VWS V14.01,2014-12-17 15:45:00,
2014-12-17 10:46:00,74.0,57.3,30.14,West,268,4.0,6.0,56,0.00,,---,0.00,VWS V14.01,2014-12-17 15:46:00,
2014-12-17 10:47:00,74.0,57.3,30.14,West,268,4.0,6.0,56,0.00,,---,0.00,VWS V14.01,2014-12-17 15:47:00,
2014-12-17 10:48:00,74.0,57.3,30.14,West,268,2.0,6.0,56,0.00,,---,0.00,VWS V14.01,2014-12-17 15:48:00,
2014-12-17 10:49:00,73.7,58.0,30.14,West,268,4.0,6.0,58,0.00,,---,0.00,VWS V14.01,2014-12-17 15:49:00,
2014-12-17 10:50:00,74.2,58.5,30.14,West,268,4.0,6.0,58,0.00,,---,0.00,VWS V14.01,2014-12-17 15:50:00,
2014-12-17 10:51:00,74.2,57.0,30.14,West,268,5.0,6.0,55,0.00,,---,0.00,VWS V14.01,2014-12-17 15:51:00,
2014-12-17 10:52:00,74.2,56.5,30.14,West,268,2.0,6.0,54,0.00,,---,0.00,VWS V14.01,2014-12-17 15:52:00,
2014-12-17 10:53:00,74.2,56.5,30.14,West,268,1.0,6.0,54,0.00,,---,0.00,VWS V14.01,2014-12-17 15:53:00,
2014-12-17 10:54:00,73.9,57.7,30.14,West,268,2.0,6.0,57,0.00,,---,0.00,VWS V14.01,2014-12-17 15:54:00,
2014-12-17 10:55:00,74.4,57.2,30.14,West,268,2.0,6.0,55,0.00,,---,0.00,VWS V14.01,2014-12-17 15:55:00,
2014-12-17 10:56:00,74.4,56.7,30.14,West,268,3.0,6.0,54,0.00,,---,0.00,VWS V14.01,2014-12-17 15:56:00,
2014-12-17 10:57:00,74.4,57.2,30.14,West,268,3.0,6.0,55,0.00,,---,0.00,VWS V14.01,2014-12-17 15:57:00,
2014-12-17 10:58:00,74.4,56.7,30.14,West,268,4.0,6.0,54,0.00,,---,0.00,VWS V14.01,2014-12-17 15:58:00,
2014-12-17 10:59:00,74.2,58.5,30.14,West,268,4.0,6.0,58,0.00,,---,0.00,VWS V14.01,2014-12-17 15:59:00,
2014-12-17 11:00:00,74.4,56.7,30.12,West,268,2.0,6.0,54,0.00,,---,0.00,VWS V14.01,2014-12-17 16:00:00,
2014-12-17 11:01:00,74.4,56.2,30.12,West,268,3.0,5.0,53,0.00,,---,0.00,VWS V14.01,2014-12-17 16:01:00,
2014-12-17 11:02:00,74.6,56.4,30.12,West,268,6.0,6.0,53,0.00,,---,0.00,VWS V14.01,2014-12-17 16:02:00,
2014-12-17 11:03:00,74.6,56.4,30.12,West,268,4.0,6.0,53,0.00,,---,0.00,VWS V14.01,2014-12-17 16:03:00,
2014-12-17 11:04:00,74.7,56.5,30.12,West,268,4.0,6.0,53,0.00,,---,0.00,VWS V14.01,2014-12-17 16:04:00,
2014-12-17 11:05:00,74.4,57.2,30.14,West,268,3.0,6.0,55,0.00,,---,0.00,VWS V14.01,2014-12-17 16:05:00,
2014-12-17 11:06:00,74.9,56.6,30.12,West,268,3.0,6.0,53,0.00,,---,0.00,VWS V14.01,2014-12-17 16:06:00,
2014-12-17 11:07:00,74.9,56.6,30.12,West,268,2.0,6.0,53,0.00,,---,0.00,VWS V14.01,2014-12-17 16:07:00,
2014-12-17 11:08:00,75.1,56.8,30.12,West,268,2.0,6.0,53,0.00,,---,0.00,VWS V14.01,2014-12-17 16:08:00,
2014-12-17 11:09:00,75.3,57.5,30.12,West,268,2.0,6.0,54,0.00,,---,0.00,VWS V14.01,2014-12-17 16:09:00,
2014-12-17 11:10:00,75.3,57.0,30.12,West,269,3.0,6.0,53,0.00,,---,0.00,VWS V14.01,2014-12-17 16:10:00,
2014-12-17 11:11:00,75.4,57.1,30.12,West,268,4.0,6.0,53,0.00,,---,0.00,VWS V14.01,2014-12-17 16:11:00,
2014-12-17 11:12:00,75.4,55.5,30.12,West,268,6.0,6.0,50,0.00,,---,0.00,VWS V14.01,2014-12-17 16:12:00,
2014-12-17 11:13:00,75.4,55.5,30.12,West,269,3.0,7.0,50,0.00,,---,0.00,VWS V14.01,2014-12-17 16:13:00,
2014-12-17 11:14:00,75.4,55.5,30.12,West,269,3.0,7.0,50,0.00,,---,0.00,VWS V14.01,2014-12-17 16:14:00,
2014-12-17 11:15:00,75.4,55.5,30.11,West,270,9.0,9.0,50,0.00,,---,0.00,VWS V14.01,2014-12-17 16:15:00,
2014-12-17 11:16:00,75.6,55.1,30.11,West,271,3.0,9.0,49,0.00,,---,0.00,VWS V14.01,2014-12-17 16:16:00,
2014-12-17 11:17:00,75.6,55.7,30.11,West,271,4.0,9.0,50,0.00,,---,0.00,VWS V14.01,2014-12-17 16:17:00,
2014-12-17 11:18:00,75.6,56.2,30.11,West,271,3.0,9.0,51,0.00,,---,0.00,VWS V14.01,2014-12-17 16:18:00,
2014-12-17 11:19:00,75.8,56.4,30.11,West,271,3.0,9.0,51,0.00,,---,0.00,VWS V14.01,2014-12-17 16:19:00,
2014-12-17 11:20:00,75.8,56.4,30.11,West,271,4.0,9.0,51,0.00,,---,0.00,VWS V14.01,2014-12-17 16:20:00,
2014-12-17 11:21:00,76.0,55.5,30.11,West,270,5.0,10.0,49,0.00,,---,0.00,VWS V14.01,2014-12-17 16:21:00,
2014-12-17 11:22:00,75.8,54.7,30.11,West,270,5.0,10.0,48,0.00,,---,0.00,VWS V14.01,2014-12-17 16:22:00,
2014-12-17 11:23:00,75.8,55.3,30.11,West,270,1.0,10.0,49,0.00,,---,0.00,VWS V14.01,2014-12-17 16:23:00,
2014-12-17 11:24:00,76.0,56.0,30.11,West,270,0.0,10.0,50,0.00,,---,0.00,VWS V14.01,2014-12-17 16:24:00,
2014-12-17 11:25:00,75.6,55.7,30.11,West,271,4.0,9.0,50,0.00,,---,0.00,VWS V14.01,2014-12-17 16:25:00,
2014-12-17 11:26:00,76.1,55.0,30.11,West,270,4.0,10.0,48,0.00,,---,0.00,VWS V14.01,2014-12-17 16:26:00,
2014-12-17 11:27:00,76.1,55.6,30.11,West,270,3.0,10.0,49,0.00,,---,0.00,VWS V14.01,2014-12-17 16:27:00,
2014-12-17 11:28:00,76.3,55.8,30.11,West,270,3.0,10.0,49,0.00,,---,0.00,VWS V14.01,2014-12-17 16:28:00,
2014-12-17 11:29:00,76.5,55.9,30.10,West,270,5.0,10.0,49,0.00,,---,0.00,VWS V14.01,2014-12-17 16:29:00,
2014-12-17 11:30:00,75.8,56.4,30.11,West,270,10.0,10.0,51,0.00,,---,0.00,VWS V14.01,2014-12-17 16:30:00,
2014-12-17 11:31:00,76.5,55.4,30.10,West,270,3.0,5.0,48,0.00,,---,0.00,VWS V14.01,2014-12-17 16:31:00,
2014-12-17 11:32:00,76.5,56.5,30.10,West,270,2.0,5.0,50,0.00,,---,0.00,VWS V14.01,2014-12-17 16:32:00,
2014-12-17 11:33:00,76.5,55.9,30.10,West,270,3.0,5.0,49,0.00,,---,0.00,VWS V14.01,2014-12-17 16:33:00,
2014-12-17 11:34:00,76.7,55.5,30.10,West,270,2.0,5.0,48,0.00,,---,0.00,VWS V14.01,2014-12-17 16:34:00,
2014-12-17 11:35:00,76.1,56.1,30.11,West,269,7.0,10.0,50,0.00,,---,0.00,VWS V14.01,2014-12-17 16:35:00,
2014-12-17 11:36:00,76.7,53.8,30.10,West,270,4.0,7.0,45,0.00,,---,0.00,VWS V14.01,2014-12-17 16:36:00,
2014-12-17 11:37:00,76.7,54.4,30.10,West,270,3.0,7.0,46,0.00,,---,0.00,VWS V14.01,2014-12-17 16:37:00,
2014-12-17 11:38:00,76.7,54.4,30.10,West,270,3.0,7.0,46,0.00,,---,0.00,VWS V14.01,2014-12-17 16:38:00,
2014-12-17 11:39:00,76.7,55.0,30.10,West,270,1.0,7.0,47,0.00,,---,0.00,VWS V14.01,2014-12-17 16:39:00,
2014-12-17 11:40:00,76.5,55.4,30.10,West,270,5.0,5.0,48,0.00,,---,0.00,VWS V14.01,2014-12-17 16:40:00,
2014-12-17 11:41:00,76.8,55.1,30.10,West,270,4.0,7.0,47,0.00,,---,0.00,VWS V14.01,2014-12-17 16:41:00,
2014-12-17 11:42:00,76.8,55.7,30.10,West,270,4.0,7.0,48,0.00,,---,0.00,VWS V14.01,2014-12-17 16:42:00,
2014-12-17 11:43:00,76.8,55.1,30.10,West,271,3.0,7.0,47,0.00,,---,0.00,VWS V14.01,2014-12-17 16:43:00,
2014-12-17 11:44:00,77.0,55.2,30.09,West,271,2.0,7.0,47,0.00,,---,0.00,VWS V14.01,2014-12-17 16:44:00,
2014-12-17 11:45:00,76.7,53.8,30.10,West,270,4.0,7.0,45,0.00,,---,0.00,VWS V14.01,2014-12-17 16:45:00,
2014-12-17 11:46:00,77.2,55.4,30.09,West,271,2.0,7.0,47,0.00,,---,0.00,VWS V14.01,2014-12-17 16:46:00,
2014-12-17 11:47:00,77.4,55.6,30.09,West,271,2.0,7.0,47,0.00,,---,0.00,VWS V14.01,2014-12-17 16:47:00,
2014-12-17 11:48:00,77.4,55.6,30.09,West,271,4.0,7.0,47,0.00,,---,0.00,VWS V14.01,2014-12-17 16:48:00,
2014-12-17 11:49:00,77.6,55.8,30.09,West,271,4.0,7.0,47,0.00,,---,0.00,VWS V14.01,2014-12-17 16:49:00,
2014-12-17 11:50:00,76.8,55.1,30.10,West,270,3.0,7.0,47,0.00,,---,0.00,VWS V14.01,2014-12-17 16:50:00,
2014-12-17 11:51:00,77.7,55.9,30.09,West,271,3.0,7.0,47,0.00,,---,0.00,VWS V14.01,2014-12-17 16:51:00,
2014-12-17 11:52:00,77.7,55.9,30.09,West,271,2.0,7.0,47,0.00,,---,0.00,VWS V14.01,2014-12-17 16:52:00,
2014-12-17 11:53:00,77.7,55.9,30.09,West,271,0.0,7.0,47,0.00,,---,0.00,VWS V14.01,2014-12-17 16:53:00,
2014-12-17 11:54:00,77.7,55.9,30.09,West,271,2.0,7.0,47,0.00,,---,0.00,VWS V14.01,2014-12-17 16:54:00,
2014-12-17 11:55:00,77.2,55.4,30.09,West,271,4.0,7.0,47,0.00,,---,0.00,VWS V14.01,2014-12-17 16:55:00,
2014-12-17 11:56:00,77.9,54.9,30.09,West,271,2.0,7.0,45,0.00,,---,0.00,VWS V14.01,2014-12-17 16:56:00,
2014-12-17 11:57:00,77.9,56.7,30.09,West,271,3.0,7.0,48,0.00,,---,0.00,VWS V14.01,2014-12-17 16:57:00,
2014-12-17 11:58:00,78.1,55.7,30.09,West,271,2.0,7.0,46,0.00,,---,0.00,VWS V14.01,2014-12-17 16:58:00,
2014-12-17 11:59:00,78.1,55.0,30.09,West,271,0.0,7.0,45,0.00,,---,0.00,VWS V14.01,2014-12-17 16:59:00,
2014-12-17 12:00:00,78.1,56.2,30.08,West,271,0.0,7.0,47,0.00,,---,0.00,VWS V14.01,2014-12-17 17:00:00,
2014-12-17 12:01:00,77.7,56.5,30.09,West,271,2.0,7.0,48,0.00,,---,0.00,VWS V14.01,2014-12-17 17:01:00,
2014-12-17 12:02:00,78.3,55.8,30.08,West,271,0.0,5.0,46,0.00,,---,0.00,VWS V14.01,2014-12-17 17:02:00,
2014-12-17 12:03:00,78.5,57.8,30.08,West,271,2.0,5.0,49,0.00,,---,0.00,VWS V14.01,2014-12-17 17:03:00,
2014-12-17 12:04:00,78.6,57.9,30.08,West,271,3.0,5.0,49,0.00,,---,0.00,VWS V14.01,2014-12-17 17:04:00,
2014-12-17 12:05:00,78.8,55.7,30.08,West,271,2.0,5.0,45,0.00,,---,0.00,VWS V14.01,2014-12-17 17:05:00,
2014-12-17 12:06:00,78.8,56.3,30.08,West,271,3.0,5.0,46,0.00,,---,0.00,VWS V14.01,2014-12-17 17:06:00,
2014-12-17 12:07:00,79.0,55.9,30.08,West,271,0.0,5.0,45,0.00,,---,0.00,VWS V14.01,2014-12-17 17:07:00,
2014-12-17 12:08:00,79.0,55.9,30.08,West,271,0.0,5.0,45,0.00,,---,0.00,VWS V14.01,2014-12-17 17:08:00,
2014-12-17 12:09:00,79.2,55.4,30.08,West,271,1.0,5.0,44,0.00,,---,0.00,VWS V14.01,2014-12-17 17:09:00,
2014-12-17 12:10:00,79.4,55.6,30.08,West,271,3.0,5.0,44,0.00,,---,0.00,VWS V14.01,2014-12-17 17:10:00,
2014-12-17 12:11:00,79.4,55.6,30.08,West,271,3.0,5.0,44,0.00,,---,0.00,VWS V14.01,2014-12-17 17:11:00,
2014-12-17 12:12:00,79.4,55.6,30.08,West,271,2.0,5.0,44,0.00,,---,0.00,VWS V14.01,2014-12-17 17:12:00,
2014-12-17 12:13:00,79.4,55.6,30.08,West,271,2.0,5.0,44,0.00,,---,0.00,VWS V14.01,2014-12-17 17:13:00,
2014-12-17 12:14:00,79.4,55.6,30.08,West,271,2.0,5.0,44,0.00,,---,0.00,VWS V14.01,2014-12-17 17:14:00,
2014-12-17 12:15:00,79.4,55.6,30.08,West,271,3.0,5.0,44,0.00,,---,0.00,VWS V14.01,2014-12-17 17:15:00,
2014-12-17 12:16:00,79.6,55.8,30.08,West,271,3.0,5.0,44,0.00,,---,0.00,VWS V14.01,2014-12-17 17:16:00,
2014-12-17 12:17:00,79.6,55.8,30.08,West,271,2.0,5.0,44,0.00,,---,0.00,VWS V14.01,2014-12-17 17:17:00,
2014-12-17 12:18:00,79.6,55.8,30.08,West,271,2.0,5.0,44,0.00,,---,0.00,VWS V14.01,2014-12-17 17:18:00,
2014-12-17 12:19:00,79.6,56.4,30.08,West,271,1.0,5.0,45,0.00,,---,0.00,VWS V14.01,2014-12-17 17:19:00,
2014-12-17 12:20:00,79.4,55.6,30.08,West,271,4.0,5.0,44,0.00,,---,0.00,VWS V14.01,2014-12-17 17:20:00,
2014-12-17 12:21:00,79.8,55.3,30.08,West,271,4.0,5.0,43,0.00,,---,0.00,VWS V14.01,2014-12-17 17:21:00,
2014-12-17 12:22:00,79.8,56.0,30.08,West,271,5.0,5.0,44,0.00,,---,0.00,VWS V14.01,2014-12-17 17:22:00,
2014-12-17 12:23:00,79.8,56.0,30.08,West,271,3.0,5.0,44,0.00,,---,0.00,VWS V14.01,2014-12-17 17:23:00,
2014-12-17 12:24:00,79.8,55.3,30.08,West,271,0.0,5.0,43,0.00,,---,0.00,VWS V14.01,2014-12-17 17:24:00,
2014-12-17 12:25:00,79.6,55.8,30.08,West,271,0.0,5.0,44,0.00,,---,0.00,VWS V14.01,2014-12-17 17:25:00,
2014-12-17 12:26:00,79.9,55.4,30.08,West,271,3.0,5.0,43,0.00,,---,0.00,VWS V14.01,2014-12-17 17:26:00,
2014-12-17 12:27:00,79.9,56.1,30.08,West,271,2.0,5.0,44,0.00,,---,0.00,VWS V14.01,2014-12-17 17:27:00,
2014-12-17 12:28:00,80.1,56.9,30.08,West,271,2.0,5.0,45,0.00,,---,0.00,VWS V14.01,2014-12-17 17:28:00,
2014-12-17 12:29:00,80.1,57.5,30.07,West,271,2.0,5.0,46,0.00,,---,0.00,VWS V14.01,2014-12-17 17:29:00,
2014-12-17 12:30:00,79.8,56.0,30.08,West,271,1.0,5.0,44,0.00,,---,0.00,VWS V14.01,2014-12-17 17:30:00,
2014-12-17 12:31:00,80.5,58.4,30.07,West,271,2.0,2.0,47,0.00,,---,0.00,VWS V14.01,2014-12-17 17:31:00,
2014-12-17 12:32:00,80.5,56.6,30.07,West,271,1.0,2.0,44,0.00,,---,0.00,VWS V14.01,2014-12-17 17:32:00,
2014-12-17 12:33:00,80.7,56.8,30.07,West,271,0.0,2.0,44,0.00,,---,0.00,VWS V14.01,2014-12-17 17:33:00,
2014-12-17 12:34:00,80.7,56.8,30.07,West,271,0.0,2.0,44,0.00,,---,0.00,VWS V14.01,2014-12-17 17:34:00,
2014-12-17 12:35:00,79.8,55.3,30.08,West,271,0.0,5.0,43,0.00,,---,0.00,VWS V14.01,2014-12-17 17:35:00,
2014-12-17 12:36:00,80.9,57.0,30.07,West,271,0.0,3.0,44,0.00,,---,0.00,VWS V14.01,2014-12-17 17:36:00,
2014-12-17 12:37:00,81.1,57.2,30.07,West,271,2.0,4.0,44,0.00,,---,0.00,VWS V14.01,2014-12-17 17:37:00,
2014-12-17 12:38:00,81.1,57.2,30.07,West,271,1.0,4.0,44,0.00,,---,0.00,VWS V14.01,2014-12-17 17:38:00,
2014-12-17 12:39:00,81.1,58.4,30.07,West,271,3.0,4.0,46,0.00,,---,0.00,VWS V14.01,2014-12-17 17:39:00,
2014-12-17 12:40:00,80.3,57.7,30.07,West,271,1.0,2.0,46,0.00,,---,0.00,VWS V14.01,2014-12-17 17:40:00,
2014-12-17 12:41:00,81.1,57.8,30.07,West,271,0.0,4.0,45,0.00,,---,0.00,VWS V14.01,2014-12-17 17:41:00,
2014-12-17 12:42:00,81.1,57.2,30.07,West,271,0.0,4.0,44,0.00,,---,0.00,VWS V14.01,2014-12-17 17:42:00,
2014-12-17 12:43:00,81.1,57.8,30.07,West,271,2.0,4.0,45,0.00,,---,0.00,VWS V14.01,2014-12-17 17:43:00,
2014-12-17 12:44:00,81.1,57.8,30.07,West,271,2.0,4.0,45,0.00,,---,0.00,VWS V14.01,2014-12-17 17:44:00,
2014-12-17 12:45:00,80.9,57.0,30.07,West,271,1.0,3.0,44,0.00,,---,0.00,VWS V14.01,2014-12-17 17:45:00,
2014-12-17 12:46:00,81.2,58.5,30.07,West,271,5.0,5.0,46,0.00,,---,0.00,VWS V14.01,2014-12-17 17:46:00,
2014-12-17 12:47:00,81.2,57.9,30.07,West,272,7.0,7.0,45,0.00,,---,0.00,VWS V14.01,2014-12-17 17:47:00,
2014-12-17 12:48:00,81.2,57.9,30.07,West,272,3.0,7.0,45,0.00,,---,0.00,VWS V14.01,2014-12-17 17:48:00,
2014-12-17 12:49:00,81.1,58.4,30.07,West,272,2.0,7.0,46,0.00,,---,0.00,VWS V14.01,2014-12-17 17:49:00,
2014-12-17 12:50:00,81.1,57.8,30.07,West,271,1.0,4.0,45,0.00,,---,0.00,VWS V14.01,2014-12-17 17:50:00,
2014-12-17 12:51:00,80.9,58.2,30.07,West,272,4.0,7.0,46,0.00,,---,0.00,VWS V14.01,2014-12-17 17:51:00,
2014-12-17 12:52:00,80.9,57.6,30.07,West,271,2.0,7.0,45,0.00,,---,0.00,VWS V14.01,2014-12-17 17:52:00,
2014-12-17 12:53:00,80.7,58.6,30.07,West,272,5.0,7.0,47,0.00,,---,0.00,VWS V14.01,2014-12-17 17:53:00,
2014-12-17 12:54:00,80.7,59.8,30.07,West,273,3.0,7.0,49,0.00,,---,0.00,VWS V14.01,2014-12-17 17:54:00,
2014-12-17 12:55:00,80.9,60.5,30.07,West,273,2.0,7.0,50,0.00,,---,0.00,VWS V14.01,2014-12-17 17:55:00,
2014-12-17 12:56:00,80.9,60.0,30.07,West,273,0.0,7.0,49,0.00,,---,0.00,VWS V14.01,2014-12-17 17:56:00,
2014-12-17 12:57:00,80.9,59.4,30.07,West,273,0.0,7.0,48,0.00,,---,0.00,VWS V14.01,2014-12-17 17:57:00,
2014-12-17 12:58:00,80.9,58.2,30.07,West,273,3.0,7.0,46,0.00,,---,0.00,VWS V14.01,2014-12-17 17:58:00,
2014-12-17 12:59:00,80.9,58.2,30.06,West,273,2.0,7.0,46,0.00,,---,0.00,VWS V14.01,2014-12-17 17:59:00,
2014-12-17 13:00:00,80.9,58.8,30.06,West,273,0.0,1.0,47,0.00,,---,0.00,VWS V14.01,2014-12-17 18:00:00,
2014-12-17 13:01:00,81.1,59.0,30.06,West,273,0.0,1.0,47,0.00,,---,0.00,VWS V14.01,2014-12-17 18:01:00,
2014-12-17 13:02:00,81.2,59.1,30.06,West,273,4.0,4.0,47,0.00,,---,0.00,VWS V14.01,2014-12-17 18:02:00,
2014-12-17 13:03:00,81.4,58.7,30.06,West,273,2.0,4.0,46,0.00,,---,0.00,VWS V14.01,2014-12-17 18:03:00,
2014-12-17 13:04:00,81.4,57.4,30.06,West,273,2.0,4.0,44,0.00,,---,0.00,VWS V14.01,2014-12-17 18:04:00,
2014-12-17 13:05:00,80.9,60.5,30.07,West,273,2.0,7.0,50,0.00,,---,0.00,VWS V14.01,2014-12-17 18:05:00,
2014-12-17 13:06:00,81.4,58.7,30.06,West,273,2.0,4.0,46,0.00,,---,0.00,VWS V14.01,2014-12-17 18:06:00,
2014-12-17 13:07:00,81.4,59.3,30.06,West,273,0.0,4.0,47,0.00,,---,0.00,VWS V14.01,2014-12-17 18:07:00,
2014-12-17 13:08:00,81.4,58.7,30.06,West,273,1.0,4.0,46,0.00,,---,0.00,VWS V14.01,2014-12-17 18:08:00,
2014-12-17 13:09:00,81.6,58.8,30.06,West,273,1.0,4.0,46,0.00,,---,0.00,VWS V14.01,2014-12-17 18:09:00,
2014-12-17 13:10:00,81.1,59.0,30.06,West,273,0.0,1.0,47,0.00,,---,0.00,VWS V14.01,2014-12-17 18:10:00,
2014-12-17 13:11:00,81.6,58.2,30.06,West,273,3.0,4.0,45,0.00,,---,0.00,VWS V14.01,2014-12-17 18:11:00,
2014-12-17 13:12:00,81.8,58.4,30.06,West,273,1.0,4.0,45,0.00,,---,0.00,VWS V14.01,2014-12-17 18:12:00,
2014-12-17 13:13:00,81.8,60.2,30.06,West,273,0.0,4.0,48,0.00,,---,0.00,VWS V14.01,2014-12-17 18:13:00,
2014-12-17 13:14:00,82.0,60.4,30.06,West,273,3.0,4.0,48,0.00,,---,0.00,VWS V14.01,2014-12-17 18:14:00,
2014-12-17 13:15:00,81.4,58.7,30.06,West,273,4.0,4.0,46,0.00,,---,0.00,VWS V14.01,2014-12-17 18:15:00,
2014-12-17 13:16:00,82.2,59.4,30.05,West,273,2.0,5.0,46,0.00,,---,0.00,VWS V14.01,2014-12-17 18:16:00,
2014-12-17 13:17:00,82.0,58.6,30.05,West,273,4.0,5.0,45,0.00,,---,0.00,VWS V14.01,2014-12-17 18:17:00,
2014-12-17 13:18:00,82.0,59.2,30.05,West,273,3.0,5.0,46,0.00,,---,0.00,VWS V14.01,2014-12-17 18:18:00,
2014-12-17 13:19:00,82.2,59.4,30.05,West,273,1.0,5.0,46,0.00,,---,0.00,VWS V14.01,2014-12-17 18:19:00,
2014-12-17 13:20:00,82.2,59.4,30.05,West,273,1.0,5.0,46,0.00,,---,0.00,VWS V14.01,2014-12-17 18:20:00,
2014-12-17 13:21:00,82.2,58.8,30.05,West,273,5.0,5.0,45,0.00,,---,0.00,VWS V14.01,2014-12-17 18:21:00,
2014-12-17 13:22:00,82.4,59.6,30.05,West,273,2.0,5.0,46,0.00,,---,0.00,VWS V14.01,2014-12-17 18:22:00,
2014-12-17 13:23:00,82.6,59.8,30.05,West,273,1.0,5.0,46,0.00,,---,0.00,VWS V14.01,2014-12-17 18:23:00,
2014-12-17 13:24:00,82.6,59.1,30.05,West,273,0.0,5.0,45,0.00,,---,0.00,VWS V14.01,2014-12-17 18:24:00,
2014-12-17 13:25:00,82.8,58.7,30.05,West,273,3.0,5.0,44,0.00,,---,0.00,VWS V14.01,2014-12-17 18:25:00,
2014-12-17 13:26:00,82.8,59.9,30.05,West,273,2.0,5.0,46,0.00,,---,0.00,VWS V14.01,2014-12-17 18:26:00,
2014-12-17 13:27:00,83.0,59.5,30.05,West,273,2.0,5.0,45,0.00,,---,0.00,VWS V14.01,2014-12-17 18:27:00,
2014-12-17 13:28:00,83.0,59.5,30.05,West,273,2.0,5.0,45,0.00,,---,0.00,VWS V14.01,2014-12-17 18:28:00,
2014-12-17 13:29:00,83.0,58.9,30.05,West,273,2.0,5.0,44,0.00,,---,0.00,VWS V14.01,2014-12-17 18:29:00,
2014-12-17 13:30:00,82.8,58.7,30.05,West,273,0.0,5.0,44,0.00,,---,0.00,VWS V14.01,2014-12-17 18:30:00,
2014-12-17 13:31:00,82.8,59.3,30.05,West,273,2.0,2.0,45,0.00,,---,0.00,VWS V14.01,2014-12-17 18:31:00,
2014-12-17 13:32:00,82.4,59.6,30.05,West,273,0.0,5.0,46,0.00,,---,0.00,VWS V14.01,2014-12-17 18:32:00,
2014-12-17 13:33:00,82.8,59.3,30.05,West,273,1.0,2.0,45,0.00,,---,0.00,VWS V14.01,2014-12-17 18:33:00,
2014-12-17 13:34:00,82.8,59.3,30.05,West,273,1.0,2.0,45,0.00,,---,0.00,VWS V14.01,2014-12-17 18:34:00,
2014-12-17 13:35:00,82.8,58.7,30.05,West,273,2.0,2.0,44,0.00,,---,0.00,VWS V14.01,2014-12-17 18:35:00,
2014-12-17 13:36:00,82.8,58.7,30.05,West,273,0.0,2.0,44,0.00,,---,0.00,VWS V14.01,2014-12-17 18:36:00,
2014-12-17 13:37:00,83.0,59.5,30.05,West,273,2.0,5.0,45,0.00,,---,0.00,VWS V14.01,2014-12-17 18:37:00,
2014-12-17 13:38:00,83.0,58.9,30.05,West,273,0.0,3.0,44,0.00,,---,0.00,VWS V14.01,2014-12-17 18:38:00,
2014-12-17 13:39:00,83.0,59.5,30.05,West,273,0.0,3.0,45,0.00,,---,0.00,VWS V14.01,2014-12-17 18:39:00,
2014-12-17 13:40:00,82.8,58.7,30.05,West,273,0.0,3.0,44,0.00,,---,0.00,VWS V14.01,2014-12-17 18:40:00,
2014-12-17 13:41:00,82.6,58.5,30.05,West,273,1.0,3.0,44,0.00,,---,0.00,VWS V14.01,2014-12-17 18:41:00,
2014-12-17 13:42:00,82.8,59.3,30.05,West,273,0.0,2.0,45,0.00,,---,0.00,VWS V14.01,2014-12-17 18:42:00,
2014-12-17 13:43:00,82.6,60.3,30.05,West,273,1.0,3.0,47,0.00,,---,0.00,VWS V14.01,2014-12-17 18:43:00,
2014-12-17 13:44:00,82.4,59.0,30.03,West,273,3.0,3.0,45,0.00,,---,0.00,VWS V14.01,2014-12-17 18:44:00,
2014-12-17 13:45:00,82.4,58.3,30.03,West,273,0.0,3.0,44,0.00,,---,0.00,VWS V14.01,2014-12-17 18:45:00,
2014-12-17 13:46:00,82.6,59.1,30.03,West,273,0.0,3.0,45,0.00,,---,0.00,VWS V14.01,2014-12-17 18:46:00,
2014-12-17 13:47:00,83.0,59.5,30.05,West,273,3.0,3.0,45,0.00,,---,0.00,VWS V14.01,2014-12-17 18:47:00,
2014-12-17 13:48:00,82.8,59.3,30.03,West,273,3.0,3.0,45,0.00,,---,0.00,VWS V14.01,2014-12-17 18:48:00,
2014-12-17 13:49:00,82.8,59.3,30.03,West,273,2.0,5.0,45,0.00,,---,0.00,VWS V14.01,2014-12-17 18:49:00,
2014-12-17 13:50:00,82.8,59.3,30.03,West,273,0.0,5.0,45,0.00,,---,0.00,VWS V14.01,2014-12-17 18:50:00,
2014-12-17 13:51:00,83.0,59.5,30.03,West,273,2.0,5.0,45,0.00,,---,0.00,VWS V14.01,2014-12-17 18:51:00,
2014-12-17 13:52:00,82.6,59.1,30.05,West,273,0.0,3.0,45,0.00,,---,0.00,VWS V14.01,2014-12-17 18:52:00,
2014-12-17 13:53:00,83.2,59.0,30.03,West,273,0.0,5.0,44,0.00,,---,0.00,VWS V14.01,2014-12-17 18:53:00,
2014-12-17 13:54:00,83.2,59.7,30.03,West,273,2.0,5.0,45,0.00,,---,0.00,VWS V14.01,2014-12-17 18:54:00,
2014-12-17 13:55:00,83.2,60.9,30.03,West,273,2.0,5.0,47,0.00,,---,0.00,VWS V14.01,2014-12-17 18:55:00,
2014-12-17 13:56:00,83.4,59.2,30.03,West,273,5.0,5.0,44,0.00,,---,0.00,VWS V14.01,2014-12-17 18:56:00,
2014-12-17 13:57:00,82.6,59.1,30.03,West,273,2.0,3.0,45,0.00,,---,0.00,VWS V14.01,2014-12-17 18:57:00,
2014-12-17 13:58:00,83.4,59.2,30.03,West,273,3.0,5.0,44,0.00,,---,0.00,VWS V14.01,2014-12-17 18:58:00,
2014-12-17 13:59:00,83.4,59.2,30.03,West,273,2.0,5.0,44,0.00,,---,0.00,VWS V14.01,2014-12-17 18:59:00,
2014-12-17 14:00:00,83.2,59.0,30.03,West,273,3.0,5.0,44,0.00,,---,0.00,VWS V14.01,2014-12-17 19:00:00,
2014-12-17 14:01:00,83.0,58.9,30.03,West,273,4.0,4.0,44,0.00,,---,0.00,VWS V14.01,2014-12-17 19:01:00,
2014-12-17 14:02:00,82.6,58.5,30.03,West,273,4.0,4.0,44,0.00,,---,0.00,VWS V14.01,2014-12-17 19:02:00,
2014-12-17 14:03:00,82.2,58.8,30.03,West,273,2.0,4.0,45,0.00,,---,0.00,VWS V14.01,2014-12-17 19:03:00,
2014-12-17 14:04:00,81.8,59.0,30.03,West,273,5.0,5.0,46,0.00,,---,0.00,VWS V14.01,2014-12-17 19:04:00,
2014-12-17 14:05:00,81.8,59.0,30.03,West,273,1.0,5.0,46,0.00,,---,0.00,VWS V14.01,2014-12-17 19:05:00,
2014-12-17 14:06:00,81.6,58.8,30.03,West,273,1.0,5.0,46,0.00,,---,0.00,VWS V14.01,2014-12-17 19:06:00,
2014-12-17 14:07:00,81.4,58.0,30.03,West,273,1.0,5.0,45,0.00,,---,0.00,VWS V14.01,2014-12-17 19:07:00,
2014-12-17 14:08:00,81.2,58.5,30.03,West,273,1.0,5.0,46,0.00,,---,0.00,VWS V14.01,2014-12-17 19:08:00,
2014-12-17 14:09:00,81.1,58.4,30.03,West,273,0.0,5.0,46,0.00,,---,0.00,VWS V14.01,2014-12-17 19:09:00,
2014-12-17 14:10:00,80.9,58.8,30.03,West,273,0.0,5.0,47,0.00,,---,0.00,VWS V14.01,2014-12-17 19:10:00,
2014-12-17 14:11:00,80.9,58.8,30.03,West,273,2.0,5.0,47,0.00,,---,0.00,VWS V14.01,2014-12-17 19:11:00,
2014-12-17 14:12:00,80.9,59.4,30.03,West,273,1.0,5.0,48,0.00,,---,0.00,VWS V14.01,2014-12-17 19:12:00,
2014-12-17 14:13:00,80.9,59.4,30.03,West,273,3.0,5.0,48,0.00,,---,0.00,VWS V14.01,2014-12-17 19:13:00,
2014-12-17 14:14:00,80.7,58.6,30.02,West,273,2.0,5.0,47,0.00,,---,0.00,VWS V14.01,2014-12-17 19:14:00,
2014-12-17 14:15:00,80.7,59.2,30.02,West,273,5.0,6.0,48,0.00,,---,0.00,VWS V14.01,2014-12-17 19:15:00,
2014-12-17 14:16:00,81.4,58.0,30.03,West,273,3.0,5.0,45,0.00,,---,0.00,VWS V14.01,2014-12-17 19:16:00,
2014-12-17 14:17:00,80.7,59.8,30.02,West,273,1.0,6.0,49,0.00,,---,0.00,VWS V14.01,2014-12-17 19:17:00,
2014-12-17 14:18:00,80.7,58.6,30.02,West,273,1.0,6.0,47,0.00,,---,0.00,VWS V14.01,2014-12-17 19:18:00,
2014-12-17 14:19:00,80.7,58.6,30.02,West,273,2.0,6.0,47,0.00,,---,0.00,VWS V14.01,2014-12-17 19:19:00,
2014-12-17 14:20:00,80.7,59.2,30.02,West,273,1.0,6.0,48,0.00,,---,0.00,VWS V14.01,2014-12-17 19:20:00,
2014-12-17 14:21:00,80.9,58.8,30.03,West,273,1.0,5.0,47,0.00,,---,0.00,VWS V14.01,2014-12-17 19:21:00,
2014-12-17 14:22:00,80.9,58.8,30.02,West,273,5.0,6.0,47,0.00,,---,0.00,VWS V14.01,2014-12-17 19:22:00,
2014-12-17 14:23:00,80.9,59.4,30.02,West,273,2.0,6.0,48,0.00,,---,0.00,VWS V14.01,2014-12-17 19:23:00,
2014-12-17 14:24:00,80.9,58.2,30.02,West,273,1.0,6.0,46,0.00,,---,0.00,VWS V14.01,2014-12-17 19:24:00,
2014-12-17 14:25:00,80.9,58.8,30.02,West,273,0.0,6.0,47,0.00,,---,0.00,VWS V14.01,2014-12-17 19:25:00,
2014-12-17 14:26:00,80.7,59.2,30.02,West,273,1.0,6.0,48,0.00,,---,0.00,VWS V14.01,2014-12-17 19:26:00,
2014-12-17 14:27:00,80.9,58.8,30.02,West,273,2.0,6.0,47,0.00,,---,0.00,VWS V14.01,2014-12-17 19:27:00,
2014-12-17 14:28:00,80.9,58.8,30.02,West,273,4.0,6.0,47,0.00,,---,0.00,VWS V14.01,2014-12-17 19:28:00,
2014-12-17 14:29:00,80.9,58.8,30.02,West,273,4.0,6.0,47,0.00,,---,0.00,VWS V14.01,2014-12-17 19:29:00,
2014-12-17 14:30:00,80.7,58.6,30.02,West,273,5.0,5.0,47,0.00,,---,0.00,VWS V14.01,2014-12-17 19:30:00,
2014-12-17 14:31:00,80.7,59.2,30.02,West,273,2.0,6.0,48,0.00,,---,0.00,VWS V14.01,2014-12-17 19:31:00,
2014-12-17 14:32:00,80.5,59.0,30.02,West,273,6.0,6.0,48,0.00,,---,0.00,VWS V14.01,2014-12-17 19:32:00,
2014-12-17 14:33:00,80.3,58.8,30.02,West,273,5.0,6.0,48,0.00,,---,0.00,VWS V14.01,2014-12-17 19:33:00,
2014-12-17 14:34:00,80.3,58.8,30.02,West,273,2.0,6.0,48,0.00,,---,0.00,VWS V14.01,2014-12-17 19:34:00,
2014-12-17 14:35:00,80.3,58.8,30.02,West,273,2.0,6.0,48,0.00,,---,0.00,VWS V14.01,2014-12-17 19:35:00,
2014-12-17 14:36:00,80.9,58.8,30.02,West,273,2.0,6.0,47,0.00,,---,0.00,VWS V14.01,2014-12-17 19:36:00,
2014-12-17 14:37:00,80.3,58.2,30.02,West,273,1.0,6.0,47,0.00,,---,0.00,VWS V14.01,2014-12-17 19:37:00,
2014-12-17 14:38:00,80.3,58.2,30.02,West,273,1.0,6.0,47,0.00,,---,0.00,VWS V14.01,2014-12-17 19:38:00,
2014-12-17 14:39:00,80.3,58.2,30.02,West,273,1.0,6.0,47,0.00,,---,0.00,VWS V14.01,2014-12-17 19:39:00,
2014-12-17 14:40:00,80.3,58.2,30.02,West,273,0.0,6.0,47,0.00,,---,0.00,VWS V14.01,2014-12-17 19:40:00,
2014-12-17 14:41:00,80.5,59.0,30.02,West,273,2.0,5.0,48,0.00,,---,0.00,VWS V14.01,2014-12-17 19:41:00,
2014-12-17 14:42:00,80.5,58.4,30.02,West,273,2.0,6.0,47,0.00,,---,0.00,VWS V14.01,2014-12-17 19:42:00,
2014-12-17 14:43:00,80.5,58.4,30.02,West,273,1.0,6.0,47,0.00,,---,0.00,VWS V14.01,2014-12-17 19:43:00,
2014-12-17 14:44:00,80.3,58.2,30.02,West,273,0.0,6.0,47,0.00,,---,0.00,VWS V14.01,2014-12-17 19:44:00,
2014-12-17 14:45:00,80.3,58.2,30.02,West,273,3.0,6.0,47,0.00,,---,0.00,VWS V14.01,2014-12-17 19:45:00,
2014-12-17 14:46:00,80.3,58.2,30.02,West,273,1.0,6.0,47,0.00,,---,0.00,VWS V14.01,2014-12-17 19:46:00,
2014-12-17 14:47:00,80.3,58.2,30.02,West,273,2.0,6.0,47,0.00,,---,0.00,VWS V14.01,2014-12-17 19:47:00,
2014-12-17 14:48:00,80.1,58.7,30.02,West,273,1.0,6.0,48,0.00,,---,0.00,VWS V14.01,2014-12-17 19:48:00,
2014-12-17 14:49:00,80.3,58.8,30.02,West,273,2.0,6.0,48,0.00,,---,0.00,VWS V14.01,2014-12-17 19:49:00,
2014-12-17 14:50:00,80.3,59.4,30.02,West,273,0.0,6.0,49,0.00,,---,0.00,VWS V14.01,2014-12-17 19:50:00,
2014-12-17 14:51:00,80.1,58.7,30.02,West,273,1.0,6.0,48,0.00,,---,0.00,VWS V14.01,2014-12-17 19:51:00,
2014-12-17 14:52:00,80.1,58.7,30.02,West,273,0.0,6.0,48,0.00,,---,0.00,VWS V14.01,2014-12-17 19:52:00,
2014-12-17 14:53:00,80.3,59.4,30.02,West,273,0.0,6.0,49,0.00,,---,0.00,VWS V14.01,2014-12-17 19:53:00,
2014-12-17 14:54:00,80.3,58.8,30.02,West,273,0.0,6.0,48,0.00,,---,0.00,VWS V14.01,2014-12-17 19:54:00,
2014-12-17 14:55:00,80.3,58.8,30.02,West,273,1.0,6.0,48,0.00,,---,0.00,VWS V14.01,2014-12-17 19:55:00,
2014-12-17 14:56:00,80.3,58.2,30.02,West,273,0.0,6.0,47,0.00,,---,0.00,VWS V14.01,2014-12-17 19:56:00,
2014-12-17 14:57:00,80.3,58.8,30.02,West,273,0.0,6.0,48,0.00,,---,0.00,VWS V14.01,2014-12-17 19:57:00,
2014-12-17 14:58:00,80.5,59.0,30.02,West,273,0.0,6.0,48,0.00,,---,0.00,VWS V14.01,2014-12-17 19:58:00,
2014-12-17 14:59:00,80.5,59.0,30.02,West,273,2.0,6.0,48,0.00,,---,0.00,VWS V14.01,2014-12-17 19:59:00,
2014-12-17 15:00:00,80.5,59.0,30.02,West,273,2.0,6.0,48,0.00,,---,0.00,VWS V14.01,2014-12-17 20:00:00,
2014-12-17 15:01:00,80.5,59.0,30.02,West,273,0.0,2.0,48,0.00,,---,0.00,VWS V14.01,2014-12-17 20:01:00,
2014-12-17 15:02:00,80.3,58.8,30.02,West,273,0.0,6.0,48,0.00,,---,0.00,VWS V14.01,2014-12-17 20:02:00,
2014-12-17 15:03:00,80.3,58.8,30.02,West,273,1.0,3.0,48,0.00,,---,0.00,VWS V14.01,2014-12-17 20:03:00,
2014-12-17 15:04:00,80.1,59.2,30.02,West,273,1.0,3.0,49,0.00,,---,0.00,VWS V14.01,2014-12-17 20:04:00,
2014-12-17 15:05:00,80.1,59.2,30.02,West,273,2.0,4.0,49,0.00,,---,0.00,VWS V14.01,2014-12-17 20:05:00,
2014-12-17 15:06:00,79.9,59.0,30.02,West,273,2.0,4.0,49,0.00,,---,0.00,VWS V14.01,2014-12-17 20:06:00,
2014-12-17 15:07:00,80.5,59.0,30.02,West,273,0.0,6.0,48,0.00,,---,0.00,VWS V14.01,2014-12-17 20:07:00,
2014-12-17 15:08:00,79.9,59.0,30.02,West,273,2.0,4.0,49,0.00,,---,0.00,VWS V14.01,2014-12-17 20:08:00,
2014-12-17 15:09:00,79.9,59.0,30.02,West,273,3.0,4.0,49,0.00,,---,0.00,VWS V14.01,2014-12-17 20:09:00,
2014-12-17 15:10:00,79.9,59.0,30.02,West,273,2.0,4.0,49,0.00,,---,0.00,VWS V14.01,2014-12-17 20:10:00,
2014-12-17 15:11:00,79.8,59.0,30.02,West,273,2.0,4.0,49,0.00,,---,0.00,VWS V14.01,2014-12-17 20:11:00,
2014-12-17 15:12:00,80.3,58.8,30.02,West,273,3.0,3.0,48,0.00,,---,0.00,VWS V14.01,2014-12-17 20:12:00,
2014-12-17 15:13:00,79.8,59.0,30.02,West,273,0.0,4.0,49,0.00,,---,0.00,VWS V14.01,2014-12-17 20:13:00,
2014-12-17 15:14:00,79.8,59.0,30.02,West,273,2.0,4.0,49,0.00,,---,0.00,VWS V14.01,2014-12-17 20:14:00,
2014-12-17 15:15:00,79.8,59.0,30.02,West,273,1.0,4.0,49,0.00,,---,0.00,VWS V14.01,2014-12-17 20:15:00,
2014-12-17 15:16:00,79.8,59.0,30.02,West,273,0.0,4.0,49,0.00,,---,0.00,VWS V14.01,2014-12-17 20:16:00,
2014-12-17 15:17:00,79.9,59.0,30.02,West,273,1.0,4.0,49,0.00,,---,0.00,VWS V14.01,2014-12-17 20:17:00,
2014-12-17 15:18:00,79.8,59.0,30.02,West,273,0.0,4.0,49,0.00,,---,0.00,VWS V14.01,2014-12-17 20:18:00,
2014-12-17 15:19:00,79.8,59.0,30.02,West,273,2.0,4.0,49,0.00,,---,0.00,VWS V14.01,2014-12-17 20:19:00,
2014-12-17 15:20:00,79.8,58.4,30.02,West,273,0.0,4.0,48,0.00,,---,0.00,VWS V14.01,2014-12-17 20:20:00,
2014-12-17 15:21:00,79.8,59.0,30.02,West,273,0.0,4.0,49,0.00,,---,0.00,VWS V14.01,2014-12-17 20:21:00,
2014-12-17 15:22:00,79.8,59.0,30.02,West,273,1.0,4.0,49,0.00,,---,0.00,VWS V14.01,2014-12-17 20:22:00,
2014-12-17 15:23:00,79.8,59.5,30.02,West,273,2.0,4.0,50,0.00,,---,0.00,VWS V14.01,2014-12-17 20:23:00,
2014-12-17 15:24:00,79.6,59.3,30.02,West,273,1.0,4.0,50,0.00,,---,0.00,VWS V14.01,2014-12-17 20:24:00,
2014-12-17 15:25:00,79.6,59.3,30.02,West,273,3.0,4.0,50,0.00,,---,0.00,VWS V14.01,2014-12-17 20:25:00,
2014-12-17 15:26:00,79.6,59.3,30.02,West,273,0.0,4.0,50,0.00,,---,0.00,VWS V14.01,2014-12-17 20:26:00,
2014-12-17 15:27:00,79.4,59.2,30.02,West,273,0.0,4.0,50,0.00,,---,0.00,VWS V14.01,2014-12-17 20:27:00,
2014-12-17 15:28:00,79.4,59.7,30.02,West,273,2.0,4.0,51,0.00,,---,0.00,VWS V14.01,2014-12-17 20:28:00,
2014-12-17 15:29:00,79.4,59.2,30.01,West,273,2.0,4.0,50,0.00,,---,0.00,VWS V14.01,2014-12-17 20:29:00,
2014-12-17 15:30:00,79.2,59.0,30.01,West,273,3.0,4.0,50,0.00,,---,0.00,VWS V14.01,2014-12-17 20:30:00,
2014-12-17 15:31:00,79.2,59.0,30.01,West,273,1.0,3.0,50,0.00,,---,0.00,VWS V14.01,2014-12-17 20:31:00,
2014-12-17 15:32:00,79.0,59.3,30.01,West,273,1.0,3.0,51,0.00,,---,0.00,VWS V14.01,2014-12-17 20:32:00,
2014-12-17 15:33:00,79.0,59.9,30.01,West,273,4.0,4.0,52,0.00,,---,0.00,VWS V14.01,2014-12-17 20:33:00,
2014-12-17 15:34:00,79.6,59.3,30.02,West,273,4.0,4.0,50,0.00,,---,0.00,VWS V14.01,2014-12-17 20:34:00,
2014-12-17 15:35:00,79.0,58.8,30.01,West,273,0.0,4.0,50,0.00,,---,0.00,VWS V14.01,2014-12-17 20:35:00,
2014-12-17 15:36:00,79.0,59.3,30.01,West,273,0.0,4.0,51,0.00,,---,0.00,VWS V14.01,2014-12-17 20:36:00,
2014-12-17 15:37:00,79.0,58.8,30.01,West,273,0.0,4.0,50,0.00,,---,0.00,VWS V14.01,2014-12-17 20:37:00,
2014-12-17 15:38:00,79.0,58.8,30.01,West,273,0.0,4.0,50,0.00,,---,0.00,VWS V14.01,2014-12-17 20:38:00,
2014-12-17 15:39:00,79.4,59.2,30.01,West,273,1.0,4.0,50,0.00,,---,0.00,VWS V14.01,2014-12-17 20:39:00,
2014-12-17 15:40:00,78.8,58.6,30.01,West,273,3.0,4.0,50,0.00,,---,0.00,VWS V14.01,2014-12-17 20:40:00,
2014-12-17 15:41:00,78.8,58.6,30.01,West,273,2.0,4.0,50,0.00,,---,0.00,VWS V14.01,2014-12-17 20:41:00,
2014-12-17 15:42:00,78.8,59.2,30.01,West,273,0.0,4.0,51,0.00,,---,0.00,VWS V14.01,2014-12-17 20:42:00,
2014-12-17 15:43:00,78.8,59.2,30.01,West,273,0.0,4.0,51,0.00,,---,0.00,VWS V14.01,2014-12-17 20:43:00,
2014-12-17 15:44:00,79.0,59.3,30.01,West,273,0.0,4.0,51,0.00,,---,0.00,VWS V14.01,2014-12-17 20:44:00,
2014-12-17 15:45:00,78.6,59.0,30.02,West,273,3.0,4.0,51,0.00,,---,0.00,VWS V14.01,2014-12-17 20:45:00,
2014-12-17 15:46:00,78.6,59.0,30.02,West,273,3.0,4.0,51,0.00,,---,0.00,VWS V14.01,2014-12-17 20:46:00,
2014-12-17 15:47:00,78.5,58.9,30.02,West,273,0.0,4.0,51,0.00,,---,0.00,VWS V14.01,2014-12-17 20:47:00,
2014-12-17 15:48:00,78.5,58.9,30.02,West,273,0.0,4.0,51,0.00,,---,0.00,VWS V14.01,2014-12-17 20:48:00,
2014-12-17 15:49:00,78.5,58.9,30.02,West,273,0.0,4.0,51,0.00,,---,0.00,VWS V14.01,2014-12-17 20:49:00,
2014-12-17 15:50:00,78.5,58.9,30.02,West,273,0.0,4.0,51,0.00,,---,0.00,VWS V14.01,2014-12-17 20:50:00,
2014-12-17 15:51:00,78.5,58.9,30.02,West,273,0.0,4.0,51,0.00,,---,0.00,VWS V14.01,2014-12-17 20:51:00,
2014-12-17 15:52:00,78.5,59.4,30.02,West,273,3.0,4.0,52,0.00,,---,0.00,VWS V14.01,2014-12-17 20:52:00,
2014-12-17 15:53:00,78.5,59.4,30.02,West,273,0.0,4.0,52,0.00,,---,0.00,VWS V14.01,2014-12-17 20:53:00,
2014-12-17 15:54:00,78.5,59.4,30.02,West,273,2.0,4.0,52,0.00,,---,0.00,VWS V14.01,2014-12-17 20:54:00,
2014-12-17 15:55:00,78.5,59.4,30.02,West,273,3.0,4.0,52,0.00,,---,0.00,VWS V14.01,2014-12-17 20:55:00,
2014-12-17 15:56:00,78.3,59.2,30.02,West,273,1.0,4.0,52,0.00,,---,0.00,VWS V14.01,2014-12-17 20:56:00,
2014-12-17 15:57:00,78.3,59.2,30.02,West,273,1.0,4.0,52,0.00,,---,0.00,VWS V14.01,2014-12-17 20:57:00,
2014-12-17 15:58:00,78.3,59.8,30.02,West,273,1.0,4.0,53,0.00,,---,0.00,VWS V14.01,2014-12-17 20:58:00,
2014-12-17 15:59:00,78.5,58.9,30.02,West,273,0.0,4.0,51,0.00,,---,0.00,VWS V14.01,2014-12-17 20:59:00,
2014-12-17 16:00:00,78.3,59.2,30.02,West,273,3.0,4.0,52,0.00,,---,0.00,VWS V14.01,2014-12-17 21:00:00,
2014-12-17 16:01:00,78.3,59.2,30.02,West,273,2.0,4.0,52,0.00,,---,0.00,VWS V14.01,2014-12-17 21:01:00,
2014-12-17 16:02:00,78.1,59.6,30.02,West,273,2.0,4.0,53,0.00,,---,0.00,VWS V14.01,2014-12-17 21:02:00,
2014-12-17 16:03:00,78.1,59.6,30.02,West,273,3.0,4.0,53,0.00,,---,0.00,VWS V14.01,2014-12-17 21:03:00,
2014-12-17 16:04:00,78.5,59.4,30.02,West,273,2.0,4.0,52,0.00,,---,0.00,VWS V14.01,2014-12-17 21:04:00,
2014-12-17 16:05:00,78.1,59.6,30.02,West,273,1.0,4.0,53,0.00,,---,0.00,VWS V14.01,2014-12-17 21:05:00,
2014-12-17 16:06:00,77.9,58.9,30.02,West,273,0.0,4.0,52,0.00,,---,0.00,VWS V14.01,2014-12-17 21:06:00,
2014-12-17 16:07:00,77.9,58.9,30.02,West,273,2.0,4.0,52,0.00,,---,0.00,VWS V14.01,2014-12-17 21:07:00,
2014-12-17 16:08:00,77.9,58.9,30.02,West,273,0.0,4.0,52,0.00,,---,0.00,VWS V14.01,2014-12-17 21:08:00,
2014-12-17 16:09:00,78.3,59.2,30.02,West,273,2.0,4.0,52,0.00,,---,0.00,VWS V14.01,2014-12-17 21:09:00,
2014-12-17 16:10:00,77.9,59.4,30.02,West,273,0.0,4.0,53,0.00,,---,0.00,VWS V14.01,2014-12-17 21:10:00,
2014-12-17 16:11:00,77.7,59.2,30.02,West,273,0.0,4.0,53,0.00,,---,0.00,VWS V14.01,2014-12-17 21:11:00,
2014-12-17 16:12:00,77.7,59.8,30.02,West,273,1.0,4.0,54,0.00,,---,0.00,VWS V14.01,2014-12-17 21:12:00,
2014-12-17 16:13:00,77.7,59.8,30.02,West,273,0.0,4.0,54,0.00,,---,0.00,VWS V14.01,2014-12-17 21:13:00,
2014-12-17 16:14:00,78.1,59.6,30.02,West,273,2.0,4.0,53,0.00,,---,0.00,VWS V14.01,2014-12-17 21:14:00,
2014-12-17 16:15:00,77.7,59.8,30.02,West,273,0.0,4.0,54,0.00,,---,0.00,VWS V14.01,2014-12-17 21:15:00,
2014-12-17 16:16:00,77.7,59.8,30.02,West,273,1.0,4.0,54,0.00,,---,0.00,VWS V14.01,2014-12-17 21:16:00,
2014-12-17 16:17:00,77.7,59.8,30.02,West,273,1.0,4.0,54,0.00,,---,0.00,VWS V14.01,2014-12-17 21:17:00,
2014-12-17 16:18:00,77.7,59.8,30.02,West,273,2.0,4.0,54,0.00,,---,0.00,VWS V14.01,2014-12-17 21:18:00,
2014-12-17 16:19:00,77.9,58.9,30.02,West,273,0.0,4.0,52,0.00,,---,0.00,VWS V14.01,2014-12-17 21:19:00,
2014-12-17 16:20:00,77.7,59.2,30.02,West,273,0.0,4.0,53,0.00,,---,0.00,VWS V14.01,2014-12-17 21:20:00,
2014-12-17 16:21:00,77.7,59.2,30.02,West,273,0.0,4.0,53,0.00,,---,0.00,VWS V14.01,2014-12-17 21:21:00,
2014-12-17 16:22:00,77.7,59.2,30.02,West,273,0.0,4.0,53,0.00,,---,0.00,VWS V14.01,2014-12-17 21:22:00,
2014-12-17 16:23:00,77.7,59.8,30.02,West,273,0.0,4.0,54,0.00,,---,0.00,VWS V14.01,2014-12-17 21:23:00,
2014-12-17 16:24:00,77.6,59.7,30.02,West,273,0.0,4.0,54,0.00,,---,0.00,VWS V14.01,2014-12-17 21:24:00,
2014-12-17 16:25:00,77.6,59.7,30.02,West,273,1.0,4.0,54,0.00,,---,0.00,VWS V14.01,2014-12-17 21:25:00,
2014-12-17 16:26:00,77.6,59.7,30.02,West,273,0.0,4.0,54,0.00,,---,0.00,VWS V14.01,2014-12-17 21:26:00,
2014-12-17 16:27:00,77.6,59.1,30.02,West,273,2.0,4.0,53,0.00,,---,0.00,VWS V14.01,2014-12-17 21:27:00,
2014-12-17 16:28:00,77.6,59.7,30.02,West,273,1.0,4.0,54,0.00,,---,0.00,VWS V14.01,2014-12-17 21:28:00,
2014-12-17 16:29:00,77.6,59.7,30.02,West,273,0.0,4.0,54,0.00,,---,0.00,VWS V14.01,2014-12-17 21:29:00,
2014-12-17 16:30:00,77.6,59.7,30.02,West,273,1.0,4.0,54,0.00,,---,0.00,VWS V14.01,2014-12-17 21:30:00,
2014-12-17 16:31:00,77.4,59.5,30.02,West,273,0.0,2.0,54,0.00,,---,0.00,VWS V14.01,2014-12-17 21:31:00,
2014-12-17 16:32:00,77.4,60.0,30.02,West,273,0.0,2.0,55,0.00,,---,0.00,VWS V14.01,2014-12-17 21:32:00,
2014-12-17 16:33:00,77.4,60.0,30.02,West,273,0.0,2.0,55,0.00,,---,0.00,VWS V14.01,2014-12-17 21:33:00,
2014-12-17 16:34:00,77.4,60.0,30.02,West,273,0.0,2.0,55,0.00,,---,0.00,VWS V14.01,2014-12-17 21:34:00,
2014-12-17 16:35:00,77.2,59.8,30.02,West,273,0.0,2.0,55,0.00,,---,0.00,VWS V14.01,2014-12-17 21:35:00,
2014-12-17 16:36:00,77.2,59.8,30.02,West,273,0.0,2.0,55,0.00,,---,0.00,VWS V14.01,2014-12-17 21:36:00,
2014-12-17 16:37:00,77.2,59.8,30.02,West,273,0.0,2.0,55,0.00,,---,0.00,VWS V14.01,2014-12-17 21:37:00,
2014-12-17 16:38:00,77.2,60.3,30.02,West,273,0.0,2.0,56,0.00,,---,0.00,VWS V14.01,2014-12-17 21:38:00,
2014-12-17 16:39:00,77.6,59.7,30.02,West,273,1.0,4.0,54,0.00,,---,0.00,VWS V14.01,2014-12-17 21:39:00,
2014-12-17 16:40:00,77.2,60.3,30.02,West,273,0.0,2.0,56,0.00,,---,0.00,VWS V14.01,2014-12-17 21:40:00,
2014-12-17 16:41:00,77.0,60.1,30.02,West,273,0.0,2.0,56,0.00,,---,0.00,VWS V14.01,2014-12-17 21:41:00,
2014-12-17 16:42:00,77.0,60.1,30.02,West,273,3.0,3.0,56,0.00,,---,0.00,VWS V14.01,2014-12-17 21:42:00,
2014-12-17 16:43:00,77.0,59.6,30.02,West,273,3.0,3.0,55,0.00,,---,0.00,VWS V14.01,2014-12-17 21:43:00,
2014-12-17 16:44:00,77.0,59.6,30.02,West,273,0.0,3.0,55,0.00,,---,0.00,VWS V14.01,2014-12-17 21:44:00,
2014-12-17 16:45:00,77.0,60.1,30.02,West,273,0.0,3.0,56,0.00,,---,0.00,VWS V14.01,2014-12-17 21:45:00,
2014-12-17 16:46:00,77.2,59.3,30.02,West,273,0.0,2.0,54,0.00,,---,0.00,VWS V14.01,2014-12-17 21:46:00,
2014-12-17 16:47:00,76.8,59.9,30.02,West,273,0.0,3.0,56,0.00,,---,0.00,VWS V14.01,2014-12-17 21:47:00,
2014-12-17 16:48:00,76.8,59.9,30.02,West,273,0.0,3.0,56,0.00,,---,0.00,VWS V14.01,2014-12-17 21:48:00,
2014-12-17 16:49:00,76.8,59.9,30.02,West,273,0.0,3.0,56,0.00,,---,0.00,VWS V14.01,2014-12-17 21:49:00,
2014-12-17 16:50:00,76.8,60.4,30.02,West,273,2.0,3.0,57,0.00,,---,0.00,VWS V14.01,2014-12-17 21:50:00,
2014-12-17 16:51:00,77.0,60.1,30.02,West,273,0.0,2.0,56,0.00,,---,0.00,VWS V14.01,2014-12-17 21:51:00,
2014-12-17 16:52:00,76.7,59.8,30.02,West,273,1.0,3.0,56,0.00,,---,0.00,VWS V14.01,2014-12-17 21:52:00,
2014-12-17 16:53:00,76.7,59.8,30.02,West,273,0.0,3.0,56,0.00,,---,0.00,VWS V14.01,2014-12-17 21:53:00,
2014-12-17 16:54:00,76.7,60.3,30.02,West,273,0.0,3.0,57,0.00,,---,0.00,VWS V14.01,2014-12-17 21:54:00,
2014-12-17 16:55:00,76.5,60.2,30.02,West,273,0.0,3.0,57,0.00,,---,0.00,VWS V14.01,2014-12-17 21:55:00,
2014-12-17 16:56:00,76.5,60.2,30.02,West,273,0.0,3.0,57,0.00,,---,0.00,VWS V14.01,2014-12-17 21:56:00,
2014-12-17 16:57:00,76.8,59.9,30.02,West,273,0.0,3.0,56,0.00,,---,0.00,VWS V14.01,2014-12-17 21:57:00,
2014-12-17 16:58:00,76.5,60.2,30.02,West,273,0.0,3.0,57,0.00,,---,0.00,VWS V14.01,2014-12-17 21:58:00,
2014-12-17 16:59:00,76.3,60.0,30.02,West,273,0.0,3.0,57,0.00,,---,0.00,VWS V14.01,2014-12-17 21:59:00,
2014-12-17 17:00:00,76.3,60.5,30.02,West,273,0.0,3.0,58,0.00,,---,0.00,VWS V14.01,2014-12-17 22:00:00,
2014-12-17 17:01:00,76.3,60.5,30.02,West,273,0.0,0.0,58,0.00,,---,0.00,VWS V14.01,2014-12-17 22:01:00,
2014-12-17 17:02:00,76.7,59.8,30.02,West,273,0.0,3.0,56,0.00,,---,0.00,VWS V14.01,2014-12-17 22:02:00,
2014-12-17 17:03:00,76.3,60.5,30.02,West,273,0.0,1.0,58,0.00,,---,0.00,VWS V14.01,2014-12-17 22:03:00,
2014-12-17 17:04:00,76.1,60.3,30.02,West,273,1.0,1.0,58,0.00,,---,0.00,VWS V14.01,2014-12-17 22:04:00,
2014-12-17 17:05:00,76.1,60.3,30.02,West,273,0.0,1.0,58,0.00,,---,0.00,VWS V14.01,2014-12-17 22:05:00,
2014-12-17 17:06:00,76.1,60.8,30.02,West,273,0.0,1.0,59,0.00,,---,0.00,VWS V14.01,2014-12-17 22:06:00,
2014-12-17 17:07:00,76.5,60.2,30.02,West,273,0.0,3.0,57,0.00,,---,0.00,VWS V14.01,2014-12-17 22:07:00,
2014-12-17 17:08:00,76.0,60.7,30.02,West,273,0.0,1.0,59,0.00,,---,0.00,VWS V14.01,2014-12-17 22:08:00,
2014-12-17 17:09:00,76.0,60.7,30.02,West,273,0.0,1.0,59,0.00,,---,0.00,VWS V14.01,2014-12-17 22:09:00,
2014-12-17 17:10:00,76.0,60.7,30.02,West,273,0.0,1.0,59,0.00,,---,0.00,VWS V14.01,2014-12-17 22:10:00,
2014-12-17 17:11:00,76.0,60.7,30.02,West,273,0.0,1.0,59,0.00,,---,0.00,VWS V14.01,2014-12-17 22:11:00,
2014-12-17 17:12:00,76.0,60.7,30.02,West,273,0.0,1.0,59,0.00,,---,0.00,VWS V14.01,2014-12-17 22:12:00,
2014-12-17 17:13:00,76.0,61.1,30.02,West,273,0.0,1.0,60,0.00,,---,0.00,VWS V14.01,2014-12-17 22:13:00,
2014-12-17 17:14:00,76.0,61.1,30.02,West,273,0.0,1.0,60,0.00,,---,0.00,VWS V14.01,2014-12-17 22:14:00,
2014-12-17 17:15:00,76.0,61.1,30.02,West,273,0.0,1.0,60,0.00,,---,0.00,VWS V14.01,2014-12-17 22:15:00,
2014-12-17 17:16:00,75.8,60.9,30.02,West,273,0.0,1.0,60,0.00,,---,0.00,VWS V14.01,2014-12-17 22:16:00,
2014-12-17 17:17:00,75.8,60.9,30.02,West,273,0.0,1.0,60,0.00,,---,0.00,VWS V14.01,2014-12-17 22:17:00,
2014-12-17 17:18:00,75.8,61.4,30.02,West,273,0.0,1.0,61,0.00,,---,0.00,VWS V14.01,2014-12-17 22:18:00,
2014-12-17 17:19:00,75.8,61.4,30.02,West,273,0.0,1.0,61,0.00,,---,0.00,VWS V14.01,2014-12-17 22:19:00,
2014-12-17 17:20:00,75.8,61.4,30.02,West,273,0.0,1.0,61,0.00,,---,0.00,VWS V14.01,2014-12-17 22:20:00,
2014-12-17 17:21:00,75.8,61.4,30.02,West,273,0.0,1.0,61,0.00,,---,0.00,VWS V14.01,2014-12-17 22:21:00,
2014-12-17 17:22:00,76.0,60.7,30.02,West,273,0.0,1.0,59,0.00,,---,0.00,VWS V14.01,2014-12-17 22:22:00,
2014-12-17 17:23:00,75.6,61.2,30.02,West,273,0.0,1.0,61,0.00,,---,0.00,VWS V14.01,2014-12-17 22:23:00,
2014-12-17 17:24:00,75.6,61.2,30.02,West,273,0.0,1.0,61,0.00,,---,0.00,VWS V14.01,2014-12-17 22:24:00,
2014-12-17 17:25:00,75.6,61.2,30.02,West,273,0.0,1.0,61,0.00,,---,0.00,VWS V14.01,2014-12-17 22:25:00,
2014-12-17 17:26:00,75.4,61.0,30.02,West,273,0.0,1.0,61,0.00,,---,0.00,VWS V14.01,2014-12-17 22:26:00,
2014-12-17 17:27:00,75.8,60.9,30.02,West,273,0.0,1.0,60,0.00,,---,0.00,VWS V14.01,2014-12-17 22:27:00,
2014-12-17 17:28:00,75.4,61.0,30.02,West,273,0.0,1.0,61,0.00,,---,0.00,VWS V14.01,2014-12-17 22:28:00,
2014-12-17 17:29:00,75.4,61.0,30.03,West,273,0.0,1.0,61,0.00,,---,0.00,VWS V14.01,2014-12-17 22:29:00,
2014-12-17 17:30:00,75.3,61.4,30.03,West,273,0.0,1.0,62,0.00,,---,0.00,VWS V14.01,2014-12-17 22:30:00,
2014-12-17 17:31:00,75.3,61.4,30.03,West,273,0.0,0.0,62,0.00,,---,0.00,VWS V14.01,2014-12-17 22:31:00,
2014-12-17 17:32:00,75.6,61.2,30.02,West,273,0.0,1.0,61,0.00,,---,0.00,VWS V14.01,2014-12-17 22:32:00,
2014-12-17 17:33:00,75.1,61.2,30.03,West,273,0.0,0.0,62,0.00,,---,0.00,VWS V14.01,2014-12-17 22:33:00,
2014-12-17 17:34:00,75.1,61.2,30.03,West,273,0.0,0.0,62,0.00,,---,0.00,VWS V14.01,2014-12-17 22:34:00,
2014-12-17 17:35:00,74.9,61.0,30.03,West,273,0.0,0.0,62,0.00,,---,0.00,VWS V14.01,2014-12-17 22:35:00,
2014-12-17 17:36:00,74.9,61.5,30.03,West,273,0.0,0.0,63,0.00,,---,0.00,VWS V14.01,2014-12-17 22:36:00,
2014-12-17 17:37:00,75.4,61.0,30.02,West,273,0.0,1.0,61,0.00,,---,0.00,VWS V14.01,2014-12-17 22:37:00,
2014-12-17 17:38:00,74.7,61.3,30.03,West,273,0.0,0.0,63,0.00,,---,0.00,VWS V14.01,2014-12-17 22:38:00,
2014-12-17 17:39:00,74.6,61.6,30.03,West,273,0.0,0.0,64,0.00,,---,0.00,VWS V14.01,2014-12-17 22:39:00,
2014-12-17 17:40:00,74.6,61.6,30.03,West,273,0.0,0.0,64,0.00,,---,0.00,VWS V14.01,2014-12-17 22:40:00,
2014-12-17 17:41:00,74.6,61.6,30.03,West,273,0.0,0.0,64,0.00,,---,0.00,VWS V14.01,2014-12-17 22:41:00,
2014-12-17 17:42:00,75.1,61.2,30.03,West,273,0.0,0.0,62,0.00,,---,0.00,VWS V14.01,2014-12-17 22:42:00,
2014-12-17 17:43:00,74.2,61.2,30.03,West,273,0.0,0.0,64,0.00,,---,0.00,VWS V14.01,2014-12-17 22:43:00,
2014-12-17 17:44:00,74.2,61.2,30.03,West,273,0.0,0.0,64,0.00,,---,0.00,VWS V14.01,2014-12-17 22:44:00,
2014-12-17 17:45:00,74.2,61.2,30.03,West,273,0.0,0.0,64,0.00,,---,0.00,VWS V14.01,2014-12-17 22:45:00,
2014-12-17 17:46:00,74.0,61.1,30.03,West,273,0.0,0.0,64,0.00,,---,0.00,VWS V14.01,2014-12-17 22:46:00,
2014-12-17 17:47:00,74.7,61.3,30.03,West,273,0.0,0.0,63,0.00,,---,0.00,VWS V14.01,2014-12-17 22:47:00,
2014-12-17 17:48:00,73.9,61.4,30.03,West,273,0.0,0.0,65,0.00,,---,0.00,VWS V14.01,2014-12-17 22:48:00,
2014-12-17 17:49:00,73.9,61.4,30.03,West,273,0.0,0.0,65,0.00,,---,0.00,VWS V14.01,2014-12-17 22:49:00,
2014-12-17 17:50:00,73.9,61.4,30.03,West,273,0.0,0.0,65,0.00,,---,0.00,VWS V14.01,2014-12-17 22:50:00,
2014-12-17 17:51:00,73.7,61.2,30.03,West,273,0.0,0.0,65,0.00,,---,0.00,VWS V14.01,2014-12-17 22:51:00,
2014-12-17 17:52:00,73.7,61.7,30.03,West,273,0.0,0.0,66,0.00,,---,0.00,VWS V14.01,2014-12-17 22:52:00,
2014-12-17 17:53:00,73.5,61.5,30.03,West,273,0.0,0.0,66,0.00,,---,0.00,VWS V14.01,2014-12-17 22:53:00,
2014-12-17 17:54:00,73.3,61.3,30.03,West,273,0.0,0.0,66,0.00,,---,0.00,VWS V14.01,2014-12-17 22:54:00,
2014-12-17 17:55:00,73.3,61.3,30.03,West,273,0.0,0.0,66,0.00,,---,0.00,VWS V14.01,2014-12-17 22:55:00,
2014-12-17 17:56:00,73.2,61.2,30.03,West,273,0.0,0.0,66,0.00,,---,0.00,VWS V14.01,2014-12-17 22:56:00,
2014-12-17 17:57:00,73.2,61.2,30.03,West,273,0.0,0.0,66,0.00,,---,0.00,VWS V14.01,2014-12-17 22:57:00,
2014-12-17 17:58:00,73.0,61.0,30.03,West,273,0.0,0.0,66,0.00,,---,0.00,VWS V14.01,2014-12-17 22:58:00,
2014-12-17 17:59:00,73.0,61.0,30.03,West,273,0.0,0.0,66,0.00,,---,0.00,VWS V14.01,2014-12-17 22:59:00,
2014-12-17 18:00:00,72.8,60.8,30.03,West,273,0.0,0.0,66,0.00,,---,0.00,VWS V14.01,2014-12-17 23:00:00,
2014-12-17 18:01:00,72.8,60.8,30.03,West,273,0.0,0.0,66,0.00,,---,0.00,VWS V14.01,2014-12-17 23:01:00,
2014-12-17 18:02:00,72.7,60.7,30.03,West,273,0.0,0.0,66,0.00,,---,0.00,VWS V14.01,2014-12-17 23:02:00,
2014-12-17 18:03:00,72.7,60.7,30.03,West,273,0.0,0.0,66,0.00,,---,0.00,VWS V14.01,2014-12-17 23:03:00,
2014-12-17 18:04:00,72.5,60.5,30.03,West,273,0.0,0.0,66,0.00,,---,0.00,VWS V14.01,2014-12-17 23:04:00,
2014-12-17 18:05:00,72.5,60.5,30.03,West,273,0.0,0.0,66,0.00,,---,0.00,VWS V14.01,2014-12-17 23:05:00,
2014-12-17 18:06:00,73.2,61.2,30.03,West,273,0.0,0.0,66,0.00,,---,0.00,VWS V14.01,2014-12-17 23:06:00,
2014-12-17 18:07:00,72.3,60.3,30.03,West,273,0.0,0.0,66,0.00,,---,0.00,VWS V14.01,2014-12-17 23:07:00,
2014-12-17 18:08:00,72.3,60.3,30.03,West,273,0.0,0.0,66,0.00,,---,0.00,VWS V14.01,2014-12-17 23:08:00,
2014-12-17 18:09:00,72.1,60.1,30.03,West,273,0.0,0.0,66,0.00,,---,0.00,VWS V14.01,2014-12-17 23:09:00,
2014-12-17 18:10:00,72.1,60.1,30.03,West,273,0.0,0.0,66,0.00,,---,0.00,VWS V14.01,2014-12-17 23:10:00,
2014-12-17 18:11:00,72.8,60.8,30.03,West,273,0.0,0.0,66,0.00,,---,0.00,VWS V14.01,2014-12-17 23:11:00,
2014-12-17 18:12:00,72.0,60.0,30.03,West,273,0.0,0.0,66,0.00,,---,0.00,VWS V14.01,2014-12-17 23:12:00,
2014-12-17 18:13:00,72.0,60.0,30.03,West,273,0.0,0.0,66,0.00,,---,0.00,VWS V14.01,2014-12-17 23:13:00,
2014-12-17 18:14:00,71.8,59.8,30.05,West,273,0.0,0.0,66,0.00,,---,0.00,VWS V14.01,2014-12-17 23:14:00,
2014-12-17 18:15:00,71.8,59.8,30.05,West,273,0.0,0.0,66,0.00,,---,0.00,VWS V14.01,2014-12-17 23:15:00,
2014-12-17 18:16:00,72.3,60.3,30.03,West,273,0.0,0.0,66,0.00,,---,0.00,VWS V14.01,2014-12-17 23:16:00,
2014-12-17 18:17:00,71.6,60.1,30.05,West,273,0.0,0.0,67,0.00,,---,0.00,VWS V14.01,2014-12-17 23:17:00,
2014-12-17 18:18:00,71.6,60.1,30.05,West,273,0.0,0.0,67,0.00,,---,0.00,VWS V14.01,2014-12-17 23:18:00,
2014-12-17 18:19:00,71.6,60.1,30.05,West,273,0.0,0.0,67,0.00,,---,0.00,VWS V14.01,2014-12-17 23:19:00,
2014-12-17 18:20:00,71.6,60.1,30.05,West,273,0.0,0.0,67,0.00,,---,0.00,VWS V14.01,2014-12-17 23:20:00,
2014-12-17 18:21:00,72.0,60.0,30.03,West,273,0.0,0.0,66,0.00,,---,0.00,VWS V14.01,2014-12-17 23:21:00,
2014-12-17 18:22:00,71.5,60.0,30.05,West,273,0.0,0.0,67,0.00,,---,0.00,VWS V14.01,2014-12-17 23:22:00,
2014-12-17 18:23:00,71.5,60.0,30.05,West,273,0.0,0.0,67,0.00,,---,0.00,VWS V14.01,2014-12-17 23:23:00,
2014-12-17 18:24:00,71.3,59.8,30.05,West,273,0.0,0.0,67,0.00,,---,0.00,VWS V14.01,2014-12-17 23:24:00,
2014-12-17 18:25:00,71.3,59.8,30.05,West,273,0.0,0.0,67,0.00,,---,0.00,VWS V14.01,2014-12-17 23:25:00,
2014-12-17 18:26:00,71.6,60.1,30.05,West,273,0.0,0.0,67,0.00,,---,0.00,VWS V14.01,2014-12-17 23:26:00,
2014-12-17 18:27:00,71.3,59.8,30.05,West,273,0.0,0.0,67,0.00,,---,0.00,VWS V14.01,2014-12-17 23:27:00,
2014-12-17 18:28:00,71.1,59.6,30.05,West,273,0.0,0.0,67,0.00,,---,0.00,VWS V14.01,2014-12-17 23:28:00,